<?xml version="1.0" encoding="UTF-8" standalone="no" ?>
<gpx xmlns="http://www.topografix.com/GPX/1/1" xmlns:xsi="http://www.w3.org/2001/XMLSchema-instance" xsi:schemaLocation="http://www.topografix.com/GPX/1/1 http://www.topografix.com/GPX/1/1/gpx.xsd" version="1.1" creator="VisuGPX - https://www.visugpx.com">
  <metadata>
    <name>Le Plateau de Satory</name>
    <desc><![CDATA[Randonnée de 18 km en boucle à partir de la gare de Versailles Chantiers]]></desc>
  </metadata>
  <wpt lat="48.78758" lon="2.08191">
    <ele>137.625</ele>
    <name><![CDATA[Pique-nique Rû Du Bois Robert]]></name>
    <type><![CDATA[user]]></type>
  </wpt>
  <trk>
    <name><![CDATA[Le Plateau de Satory_V2]]></name>
    <trkseg>
      <trkpt lat="48.79685" lon="2.1355">
        <ele>164.36</ele>
        <time>2019-04-14T07:44:35Z</time>
      </trkpt>
      <trkpt lat="48.79683" lon="2.13518">
        <ele>164.52</ele>
        <time>2019-04-14T07:44:39Z</time>
      </trkpt>
      <trkpt lat="48.79634" lon="2.13405">
        <ele>168.7</ele>
        <time>2019-04-14T07:51:48Z</time>
      </trkpt>
      <trkpt lat="48.79586" lon="2.13282">
        <ele>166.94</ele>
        <time>2019-04-14T07:52:10Z</time>
      </trkpt>
      <trkpt lat="48.79697" lon="2.13157">
        <ele>162.3</ele>
        <time>2019-04-14T07:55:19Z</time>
      </trkpt>
      <trkpt lat="48.79235" lon="2.12866">
        <ele>173.94</ele>
        <time>2019-04-14T08:02:11Z</time>
      </trkpt>
      <trkpt lat="48.79233" lon="2.12875">
        <ele>170.28</ele>
        <time>2019-04-14T08:02:16Z</time>
      </trkpt>
      <trkpt lat="48.79233" lon="2.12877">
        <ele>168.68</ele>
        <time>2019-04-14T08:02:18Z</time>
      </trkpt>
      <trkpt lat="48.79233" lon="2.1288">
        <ele>167.16</ele>
        <time>2019-04-14T08:02:20Z</time>
      </trkpt>
      <trkpt lat="48.79236" lon="2.12886">
        <ele>163.58</ele>
        <time>2019-04-14T08:02:26Z</time>
      </trkpt>
      <trkpt lat="48.7923" lon="2.12901">
        <ele>161.75</ele>
        <time>2019-04-14T08:02:42Z</time>
      </trkpt>
      <trkpt lat="48.79228" lon="2.12905">
        <ele>163.58</ele>
        <time>2019-04-14T08:02:45Z</time>
      </trkpt>
      <trkpt lat="48.79224" lon="2.12917">
        <ele>163.85</ele>
        <time>2019-04-14T08:02:55Z</time>
      </trkpt>
      <trkpt lat="48.79216" lon="2.12938">
        <ele>163.64</ele>
        <time>2019-04-14T08:03:10Z</time>
      </trkpt>
      <trkpt lat="48.7921" lon="2.12962">
        <ele>165.73</ele>
        <time>2019-04-14T08:03:25Z</time>
      </trkpt>
      <trkpt lat="48.79209" lon="2.12966">
        <ele>165.75</ele>
        <time>2019-04-14T08:03:28Z</time>
      </trkpt>
      <trkpt lat="48.79206" lon="2.12975">
        <ele>164.99</ele>
        <time>2019-04-14T08:03:34Z</time>
      </trkpt>
      <trkpt lat="48.79198" lon="2.12987">
        <ele>166.73</ele>
        <time>2019-04-14T08:03:50Z</time>
      </trkpt>
      <trkpt lat="48.79194" lon="2.12992">
        <ele>166.45</ele>
        <time>2019-04-14T08:04:09Z</time>
      </trkpt>
      <trkpt lat="48.79188" lon="2.12999">
        <ele>169.41</ele>
        <time>2019-04-14T08:04:28Z</time>
      </trkpt>
      <trkpt lat="48.79184" lon="2.13006">
        <ele>172.83</ele>
        <time>2019-04-14T08:04:44Z</time>
      </trkpt>
      <trkpt lat="48.79177" lon="2.13018">
        <ele>176.15</ele>
        <time>2019-04-14T08:05:02Z</time>
      </trkpt>
      <trkpt lat="48.79172" lon="2.1302">
        <ele>176.53</ele>
        <time>2019-04-14T08:05:08Z</time>
      </trkpt>
      <trkpt lat="48.79174" lon="2.13036">
        <ele>176.99</ele>
        <time>2019-04-14T08:05:24Z</time>
      </trkpt>
      <trkpt lat="48.79169" lon="2.13033">
        <ele>176.85</ele>
        <time>2019-04-14T08:05:45Z</time>
      </trkpt>
      <trkpt lat="48.79169" lon="2.13038">
        <ele>176.9</ele>
        <time>2019-04-14T08:06:13Z</time>
      </trkpt>
      <trkpt lat="48.79171" lon="2.1304">
        <ele>176.37</ele>
        <time>2019-04-14T08:06:38Z</time>
      </trkpt>
      <trkpt lat="48.79179" lon="2.13037">
        <ele>176.22</ele>
        <time>2019-04-14T08:07:05Z</time>
      </trkpt>
      <trkpt lat="48.79189" lon="2.13055">
        <ele>175.98</ele>
        <time>2019-04-14T08:07:19Z</time>
      </trkpt>
      <trkpt lat="48.79198" lon="2.13069">
        <ele>175.39</ele>
        <time>2019-04-14T08:07:34Z</time>
      </trkpt>
      <trkpt lat="48.79205" lon="2.13078">
        <ele>175.82</ele>
        <time>2019-04-14T08:07:51Z</time>
      </trkpt>
      <trkpt lat="48.79218" lon="2.13094">
        <ele>175.9</ele>
        <time>2019-04-14T08:08:08Z</time>
      </trkpt>
      <trkpt lat="48.79232" lon="2.13113">
        <ele>175.05</ele>
        <time>2019-04-14T08:08:27Z</time>
      </trkpt>
      <trkpt lat="48.79249" lon="2.13134">
        <ele>174.87</ele>
        <time>2019-04-14T08:08:45Z</time>
      </trkpt>
      <trkpt lat="48.79263" lon="2.13161">
        <ele>174.52</ele>
        <time>2019-04-14T08:09:05Z</time>
      </trkpt>
      <trkpt lat="48.79259" lon="2.13185">
        <ele>175.62</ele>
        <time>2019-04-14T08:09:22Z</time>
      </trkpt>
      <trkpt lat="48.7925" lon="2.13216">
        <ele>176.45</ele>
        <time>2019-04-14T08:09:40Z</time>
      </trkpt>
      <trkpt lat="48.7925" lon="2.13218">
        <ele>175.97</ele>
        <time>2019-04-14T08:09:41Z</time>
      </trkpt>
      <trkpt lat="48.79247" lon="2.13225">
        <ele>176.24</ele>
        <time>2019-04-14T08:09:44Z</time>
      </trkpt>
      <trkpt lat="48.79242" lon="2.1325">
        <ele>176.23</ele>
        <time>2019-04-14T08:09:58Z</time>
      </trkpt>
      <trkpt lat="48.79251" lon="2.13282">
        <ele>175.78</ele>
        <time>2019-04-14T08:10:18Z</time>
      </trkpt>
      <trkpt lat="48.79251" lon="2.13287">
        <ele>176.15</ele>
        <time>2019-04-14T08:10:21Z</time>
      </trkpt>
      <trkpt lat="48.79251" lon="2.13318">
        <ele>176.12</ele>
        <time>2019-04-14T08:10:38Z</time>
      </trkpt>
      <trkpt lat="48.79245" lon="2.13333">
        <ele>175.25</ele>
        <time>2019-04-14T08:10:54Z</time>
      </trkpt>
      <trkpt lat="48.79239" lon="2.13336">
        <ele>175.95</ele>
        <time>2019-04-14T08:11:13Z</time>
      </trkpt>
      <trkpt lat="48.7923" lon="2.13336">
        <ele>175.31</ele>
        <time>2019-04-14T08:11:33Z</time>
      </trkpt>
      <trkpt lat="48.79227" lon="2.13336">
        <ele>175.65</ele>
        <time>2019-04-14T08:11:36Z</time>
      </trkpt>
      <trkpt lat="48.79205" lon="2.13336">
        <ele>175.76</ele>
        <time>2019-04-14T08:11:56Z</time>
      </trkpt>
      <trkpt lat="48.79193" lon="2.13336">
        <ele>175.83</ele>
        <time>2019-04-14T08:12:10Z</time>
      </trkpt>
      <trkpt lat="48.79174" lon="2.13333">
        <ele>175.8</ele>
        <time>2019-04-14T08:12:27Z</time>
      </trkpt>
      <trkpt lat="48.79157" lon="2.13338">
        <ele>175.38</ele>
        <time>2019-04-14T08:12:46Z</time>
      </trkpt>
      <trkpt lat="48.79139" lon="2.13336">
        <ele>174.97</ele>
        <time>2019-04-14T08:13:01Z</time>
      </trkpt>
      <trkpt lat="48.79124" lon="2.13336">
        <ele>174.47</ele>
        <time>2019-04-14T08:13:15Z</time>
      </trkpt>
      <trkpt lat="48.79109" lon="2.13339">
        <ele>174.79</ele>
        <time>2019-04-14T08:13:29Z</time>
      </trkpt>
      <trkpt lat="48.79089" lon="2.13338">
        <ele>175.76</ele>
        <time>2019-04-14T08:13:49Z</time>
      </trkpt>
      <trkpt lat="48.79086" lon="2.13338">
        <ele>174.94</ele>
        <time>2019-04-14T08:14:16Z</time>
      </trkpt>
      <trkpt lat="48.79083" lon="2.13337">
        <ele>175.38</ele>
        <time>2019-04-14T08:14:44Z</time>
      </trkpt>
      <trkpt lat="48.79077" lon="2.13336">
        <ele>174.92</ele>
        <time>2019-04-14T08:15:12Z</time>
      </trkpt>
      <trkpt lat="48.79079" lon="2.13341">
        <ele>174.75</ele>
        <time>2019-04-14T08:15:39Z</time>
      </trkpt>
      <trkpt lat="48.79085" lon="2.1334">
        <ele>175.25</ele>
        <time>2019-04-14T08:16:07Z</time>
      </trkpt>
      <trkpt lat="48.79085" lon="2.13342">
        <ele>175.15</ele>
        <time>2019-04-14T08:16:28Z</time>
      </trkpt>
      <trkpt lat="48.79088" lon="2.13343">
        <ele>175.53</ele>
        <time>2019-04-14T08:16:48Z</time>
      </trkpt>
      <trkpt lat="48.79091" lon="2.1334">
        <ele>175.63</ele>
        <time>2019-04-14T08:17:13Z</time>
      </trkpt>
      <trkpt lat="48.79084" lon="2.13335">
        <ele>175.73</ele>
        <time>2019-04-14T08:17:43Z</time>
      </trkpt>
      <trkpt lat="48.79077" lon="2.13338">
        <ele>175.51</ele>
        <time>2019-04-14T08:18:12Z</time>
      </trkpt>
      <trkpt lat="48.79076" lon="2.1334">
        <ele>175.76</ele>
        <time>2019-04-14T08:18:56Z</time>
      </trkpt>
      <trkpt lat="48.79076" lon="2.13339">
        <ele>175.59</ele>
        <time>2019-04-14T08:19:17Z</time>
      </trkpt>
      <trkpt lat="48.79067" lon="2.13343">
        <ele>175.1</ele>
        <time>2019-04-14T08:19:33Z</time>
      </trkpt>
      <trkpt lat="48.79051" lon="2.13346">
        <ele>175.54</ele>
        <time>2019-04-14T08:19:49Z</time>
      </trkpt>
      <trkpt lat="48.79033" lon="2.13342">
        <ele>176</ele>
        <time>2019-04-14T08:20:07Z</time>
      </trkpt>
      <trkpt lat="48.79015" lon="2.13336">
        <ele>175.51</ele>
        <time>2019-04-14T08:20:25Z</time>
      </trkpt>
      <trkpt lat="48.78998" lon="2.13332">
        <ele>174.93</ele>
        <time>2019-04-14T08:20:40Z</time>
      </trkpt>
      <trkpt lat="48.78986" lon="2.13334">
        <ele>174.29</ele>
        <time>2019-04-14T08:20:56Z</time>
      </trkpt>
      <trkpt lat="48.78969" lon="2.13331">
        <ele>172.03</ele>
        <time>2019-04-14T08:21:11Z</time>
      </trkpt>
      <trkpt lat="48.78956" lon="2.13332">
        <ele>168.56</ele>
        <time>2019-04-14T08:21:24Z</time>
      </trkpt>
      <trkpt lat="48.78937" lon="2.13339">
        <ele>165.8</ele>
        <time>2019-04-14T08:21:42Z</time>
      </trkpt>
      <trkpt lat="48.78914" lon="2.13344">
        <ele>163.12</ele>
        <time>2019-04-14T08:22:01Z</time>
      </trkpt>
      <trkpt lat="48.78912" lon="2.13346">
        <ele>162.83</ele>
        <time>2019-04-14T08:22:06Z</time>
      </trkpt>
      <trkpt lat="48.78898" lon="2.1336">
        <ele>160.66</ele>
        <time>2019-04-14T08:22:21Z</time>
      </trkpt>
      <trkpt lat="48.78889" lon="2.13372">
        <ele>159.7</ele>
        <time>2019-04-14T08:22:33Z</time>
      </trkpt>
      <trkpt lat="48.78877" lon="2.1339">
        <ele>158.69</ele>
        <time>2019-04-14T08:22:50Z</time>
      </trkpt>
      <trkpt lat="48.78874" lon="2.1339">
        <ele>158.4</ele>
        <time>2019-04-14T08:23:01Z</time>
      </trkpt>
      <trkpt lat="48.78869" lon="2.13385">
        <ele>158.36</ele>
        <time>2019-04-14T08:23:06Z</time>
      </trkpt>
      <trkpt lat="48.78864" lon="2.13382">
        <ele>157.97</ele>
        <time>2019-04-14T08:23:14Z</time>
      </trkpt>
      <trkpt lat="48.78851" lon="2.13381">
        <ele>156.72</ele>
        <time>2019-04-14T08:23:22Z</time>
      </trkpt>
      <trkpt lat="48.7884" lon="2.13366">
        <ele>156.72</ele>
        <time>2019-04-14T08:23:27Z</time>
      </trkpt>
      <trkpt lat="48.78834" lon="2.13355">
        <ele>156.56</ele>
        <time>2019-04-14T08:23:39Z</time>
      </trkpt>
      <trkpt lat="48.78829" lon="2.1335">
        <ele>155.9</ele>
        <time>2019-04-14T08:23:47Z</time>
      </trkpt>
      <trkpt lat="48.78812" lon="2.13331">
        <ele>154.39</ele>
        <time>2019-04-14T08:24:06Z</time>
      </trkpt>
      <trkpt lat="48.7879" lon="2.13321">
        <ele>153.32</ele>
        <time>2019-04-14T08:24:23Z</time>
      </trkpt>
      <trkpt lat="48.78779" lon="2.1331">
        <ele>153.39</ele>
        <time>2019-04-14T08:24:37Z</time>
      </trkpt>
      <trkpt lat="48.78778" lon="2.13302">
        <ele>153.37</ele>
        <time>2019-04-14T08:24:42Z</time>
      </trkpt>
      <trkpt lat="48.78786" lon="2.1328">
        <ele>153.84</ele>
        <time>2019-04-14T08:24:59Z</time>
      </trkpt>
      <trkpt lat="48.78789" lon="2.13267">
        <ele>153.61</ele>
        <time>2019-04-14T08:25:10Z</time>
      </trkpt>
      <trkpt lat="48.78787" lon="2.13264">
        <ele>153.95</ele>
        <time>2019-04-14T08:25:13Z</time>
      </trkpt>
      <trkpt lat="48.7878" lon="2.13252">
        <ele>154.46</ele>
        <time>2019-04-14T08:25:29Z</time>
      </trkpt>
      <trkpt lat="48.78775" lon="2.13232">
        <ele>154.92</ele>
        <time>2019-04-14T08:25:48Z</time>
      </trkpt>
      <trkpt lat="48.7877" lon="2.13213">
        <ele>155.25</ele>
        <time>2019-04-14T08:26:07Z</time>
      </trkpt>
      <trkpt lat="48.78766" lon="2.13183">
        <ele>155.52</ele>
        <time>2019-04-14T08:26:31Z</time>
      </trkpt>
      <trkpt lat="48.78766" lon="2.13154">
        <ele>156.84</ele>
        <time>2019-04-14T08:26:49Z</time>
      </trkpt>
      <trkpt lat="48.78764" lon="2.13128">
        <ele>156.75</ele>
        <time>2019-04-14T08:27:04Z</time>
      </trkpt>
      <trkpt lat="48.7876" lon="2.13098">
        <ele>155.93</ele>
        <time>2019-04-14T08:27:22Z</time>
      </trkpt>
      <trkpt lat="48.78758" lon="2.13076">
        <ele>155.56</ele>
        <time>2019-04-14T08:27:34Z</time>
      </trkpt>
      <trkpt lat="48.78756" lon="2.13052">
        <ele>155.4</ele>
        <time>2019-04-14T08:27:49Z</time>
      </trkpt>
      <trkpt lat="48.78753" lon="2.13023">
        <ele>153.37</ele>
        <time>2019-04-14T08:28:09Z</time>
      </trkpt>
      <trkpt lat="48.78749" lon="2.12986">
        <ele>151.25</ele>
        <time>2019-04-14T08:28:27Z</time>
      </trkpt>
      <trkpt lat="48.78749" lon="2.12959">
        <ele>150.96</ele>
        <time>2019-04-14T08:28:40Z</time>
      </trkpt>
      <trkpt lat="48.78748" lon="2.12943">
        <ele>151.33</ele>
        <time>2019-04-14T08:28:50Z</time>
      </trkpt>
      <trkpt lat="48.78748" lon="2.12912">
        <ele>151.33</ele>
        <time>2019-04-14T08:29:07Z</time>
      </trkpt>
      <trkpt lat="48.7875" lon="2.12888">
        <ele>150.65</ele>
        <time>2019-04-14T08:29:20Z</time>
      </trkpt>
      <trkpt lat="48.78748" lon="2.12878">
        <ele>150.06</ele>
        <time>2019-04-14T08:29:24Z</time>
      </trkpt>
      <trkpt lat="48.78749" lon="2.12853">
        <ele>150.12</ele>
        <time>2019-04-14T08:29:38Z</time>
      </trkpt>
      <trkpt lat="48.78751" lon="2.12833">
        <ele>151.1</ele>
        <time>2019-04-14T08:29:55Z</time>
      </trkpt>
      <trkpt lat="48.78749" lon="2.128">
        <ele>152.94</ele>
        <time>2019-04-14T08:30:11Z</time>
      </trkpt>
      <trkpt lat="48.78748" lon="2.12779">
        <ele>154.85</ele>
        <time>2019-04-14T08:30:29Z</time>
      </trkpt>
      <trkpt lat="48.78748" lon="2.12752">
        <ele>157.37</ele>
        <time>2019-04-14T08:30:48Z</time>
      </trkpt>
      <trkpt lat="48.78745" lon="2.1272">
        <ele>159.97</ele>
        <time>2019-04-14T08:31:07Z</time>
      </trkpt>
      <trkpt lat="48.78747" lon="2.127">
        <ele>162.99</ele>
        <time>2019-04-14T08:31:21Z</time>
      </trkpt>
      <trkpt lat="48.78747" lon="2.12669">
        <ele>164.48</ele>
        <time>2019-04-14T08:31:39Z</time>
      </trkpt>
      <trkpt lat="48.78744" lon="2.12635">
        <ele>167.13</ele>
        <time>2019-04-14T08:31:57Z</time>
      </trkpt>
      <trkpt lat="48.78748" lon="2.126">
        <ele>169.17</ele>
        <time>2019-04-14T08:32:18Z</time>
      </trkpt>
      <trkpt lat="48.78748" lon="2.12576">
        <ele>170.09</ele>
        <time>2019-04-14T08:32:34Z</time>
      </trkpt>
      <trkpt lat="48.78752" lon="2.12538">
        <ele>171.83</ele>
        <time>2019-04-14T08:32:54Z</time>
      </trkpt>
      <trkpt lat="48.78755" lon="2.12532">
        <ele>171.5</ele>
        <time>2019-04-14T08:32:56Z</time>
      </trkpt>
      <trkpt lat="48.78756" lon="2.12533">
        <ele>171.82</ele>
        <time>2019-04-14T08:33:20Z</time>
      </trkpt>
      <trkpt lat="48.78756" lon="2.1254">
        <ele>171.37</ele>
        <time>2019-04-14T08:33:40Z</time>
      </trkpt>
      <trkpt lat="48.78759" lon="2.12539">
        <ele>171.6</ele>
        <time>2019-04-14T08:34:02Z</time>
      </trkpt>
      <trkpt lat="48.78763" lon="2.12543">
        <ele>171.35</ele>
        <time>2019-04-14T08:34:28Z</time>
      </trkpt>
      <trkpt lat="48.7877" lon="2.12542">
        <ele>171.72</ele>
        <time>2019-04-14T08:34:55Z</time>
      </trkpt>
      <trkpt lat="48.78774" lon="2.12546">
        <ele>172.22</ele>
        <time>2019-04-14T08:35:23Z</time>
      </trkpt>
      <trkpt lat="48.7879" lon="2.12547">
        <ele>171.23</ele>
        <time>2019-04-14T08:35:46Z</time>
      </trkpt>
      <trkpt lat="48.78793" lon="2.12547">
        <ele>171.17</ele>
        <time>2019-04-14T08:35:51Z</time>
      </trkpt>
      <trkpt lat="48.78797" lon="2.12548">
        <ele>171.94</ele>
        <time>2019-04-14T08:35:53Z</time>
      </trkpt>
      <trkpt lat="48.78799" lon="2.12548">
        <ele>171.93</ele>
        <time>2019-04-14T08:35:55Z</time>
      </trkpt>
      <trkpt lat="48.78816" lon="2.12551">
        <ele>170.95</ele>
        <time>2019-04-14T08:36:12Z</time>
      </trkpt>
      <trkpt lat="48.78829" lon="2.12548">
        <ele>170.33</ele>
        <time>2019-04-14T08:36:25Z</time>
      </trkpt>
      <trkpt lat="48.78851" lon="2.12544">
        <ele>170.94</ele>
        <time>2019-04-14T08:36:44Z</time>
      </trkpt>
      <trkpt lat="48.78866" lon="2.12539">
        <ele>170.69</ele>
        <time>2019-04-14T08:36:57Z</time>
      </trkpt>
      <trkpt lat="48.78875" lon="2.1255">
        <ele>169.75</ele>
        <time>2019-04-14T08:37:11Z</time>
      </trkpt>
      <trkpt lat="48.78875" lon="2.12551">
        <ele>169.35</ele>
        <time>2019-04-14T08:37:12Z</time>
      </trkpt>
      <trkpt lat="48.78875" lon="2.12571">
        <ele>168.81</ele>
        <time>2019-04-14T08:37:28Z</time>
      </trkpt>
      <trkpt lat="48.78876" lon="2.12574">
        <ele>168.02</ele>
        <time>2019-04-14T08:37:30Z</time>
      </trkpt>
      <trkpt lat="48.78881" lon="2.12585">
        <ele>168.07</ele>
        <time>2019-04-14T08:37:37Z</time>
      </trkpt>
      <trkpt lat="48.78884" lon="2.12588">
        <ele>167.79</ele>
        <time>2019-04-14T08:37:41Z</time>
      </trkpt>
      <trkpt lat="48.78897" lon="2.12571">
        <ele>167.35</ele>
        <time>2019-04-14T08:37:57Z</time>
      </trkpt>
      <trkpt lat="48.78906" lon="2.1256">
        <ele>166.28</ele>
        <time>2019-04-14T08:38:07Z</time>
      </trkpt>
      <trkpt lat="48.78911" lon="2.12552">
        <ele>167.51</ele>
        <time>2019-04-14T08:38:13Z</time>
      </trkpt>
      <trkpt lat="48.78931" lon="2.12529">
        <ele>166.78</ele>
        <time>2019-04-14T08:38:35Z</time>
      </trkpt>
      <trkpt lat="48.78949" lon="2.1251">
        <ele>165.27</ele>
        <time>2019-04-14T08:38:52Z</time>
      </trkpt>
      <trkpt lat="48.78963" lon="2.12495">
        <ele>165.97</ele>
        <time>2019-04-14T08:39:07Z</time>
      </trkpt>
      <trkpt lat="48.79012" lon="2.12444">
        <ele>165.19</ele>
        <time>2019-04-14T08:39:49Z</time>
      </trkpt>
      <trkpt lat="48.79025" lon="2.12433">
        <ele>165.09</ele>
        <time>2019-04-14T08:40:04Z</time>
      </trkpt>
      <trkpt lat="48.79041" lon="2.1242">
        <ele>164.66</ele>
        <time>2019-04-14T08:40:19Z</time>
      </trkpt>
      <trkpt lat="48.79053" lon="2.12415">
        <ele>164.07</ele>
        <time>2019-04-14T08:40:31Z</time>
      </trkpt>
      <trkpt lat="48.79067" lon="2.12408">
        <ele>163.76</ele>
        <time>2019-04-14T08:40:46Z</time>
      </trkpt>
      <trkpt lat="48.7909" lon="2.12411">
        <ele>163.04</ele>
        <time>2019-04-14T08:41:05Z</time>
      </trkpt>
      <trkpt lat="48.79101" lon="2.12395">
        <ele>162.89</ele>
        <time>2019-04-14T08:41:18Z</time>
      </trkpt>
      <trkpt lat="48.79102" lon="2.12372">
        <ele>162.24</ele>
        <time>2019-04-14T08:41:34Z</time>
      </trkpt>
      <trkpt lat="48.79103" lon="2.12354">
        <ele>161.74</ele>
        <time>2019-04-14T08:41:50Z</time>
      </trkpt>
      <trkpt lat="48.79105" lon="2.12327">
        <ele>159.04</ele>
        <time>2019-04-14T08:42:09Z</time>
      </trkpt>
      <trkpt lat="48.79108" lon="2.12298">
        <ele>158.03</ele>
        <time>2019-04-14T08:42:23Z</time>
      </trkpt>
      <trkpt lat="48.79109" lon="2.12276">
        <ele>156.38</ele>
        <time>2019-04-14T08:42:34Z</time>
      </trkpt>
      <trkpt lat="48.79113" lon="2.12271">
        <ele>155.34</ele>
        <time>2019-04-14T08:42:43Z</time>
      </trkpt>
      <trkpt lat="48.79124" lon="2.12252">
        <ele>152.41</ele>
        <time>2019-04-14T08:43:00Z</time>
      </trkpt>
      <trkpt lat="48.79141" lon="2.12242">
        <ele>149.34</ele>
        <time>2019-04-14T08:43:17Z</time>
      </trkpt>
      <trkpt lat="48.79157" lon="2.12211">
        <ele>146.65</ele>
        <time>2019-04-14T08:43:40Z</time>
      </trkpt>
      <trkpt lat="48.79165" lon="2.12199">
        <ele>144.66</ele>
        <time>2019-04-14T08:43:58Z</time>
      </trkpt>
      <trkpt lat="48.79179" lon="2.12189">
        <ele>142.29</ele>
        <time>2019-04-14T08:44:18Z</time>
      </trkpt>
      <trkpt lat="48.79183" lon="2.12162">
        <ele>139.07</ele>
        <time>2019-04-14T08:44:39Z</time>
      </trkpt>
      <trkpt lat="48.79189" lon="2.12133">
        <ele>138.09</ele>
        <time>2019-04-14T08:44:57Z</time>
      </trkpt>
      <trkpt lat="48.79191" lon="2.12106">
        <ele>139.67</ele>
        <time>2019-04-14T08:45:17Z</time>
      </trkpt>
      <trkpt lat="48.7919" lon="2.12073">
        <ele>139.91</ele>
        <time>2019-04-14T08:45:37Z</time>
      </trkpt>
      <trkpt lat="48.7919" lon="2.12044">
        <ele>140.66</ele>
        <time>2019-04-14T08:45:57Z</time>
      </trkpt>
      <trkpt lat="48.79202" lon="2.12012">
        <ele>142.05</ele>
        <time>2019-04-14T08:46:18Z</time>
      </trkpt>
      <trkpt lat="48.7921" lon="2.11979">
        <ele>143.16</ele>
        <time>2019-04-14T08:46:37Z</time>
      </trkpt>
      <trkpt lat="48.79213" lon="2.11948">
        <ele>144.34</ele>
        <time>2019-04-14T08:46:56Z</time>
      </trkpt>
      <trkpt lat="48.79219" lon="2.11929">
        <ele>144.16</ele>
        <time>2019-04-14T08:47:10Z</time>
      </trkpt>
      <trkpt lat="48.79225" lon="2.11907">
        <ele>143.96</ele>
        <time>2019-04-14T08:47:24Z</time>
      </trkpt>
      <trkpt lat="48.79227" lon="2.11876">
        <ele>143.09</ele>
        <time>2019-04-14T08:47:40Z</time>
      </trkpt>
      <trkpt lat="48.79228" lon="2.11859">
        <ele>140.72</ele>
        <time>2019-04-14T08:47:53Z</time>
      </trkpt>
      <trkpt lat="48.79229" lon="2.11849">
        <ele>140.79</ele>
        <time>2019-04-14T08:47:58Z</time>
      </trkpt>
      <trkpt lat="48.79245" lon="2.11832">
        <ele>139.12</ele>
        <time>2019-04-14T08:48:13Z</time>
      </trkpt>
      <trkpt lat="48.79243" lon="2.11827">
        <ele>139.41</ele>
        <time>2019-04-14T08:48:33Z</time>
      </trkpt>
      <trkpt lat="48.79239" lon="2.11826">
        <ele>139.76</ele>
        <time>2019-04-14T08:48:55Z</time>
      </trkpt>
      <trkpt lat="48.7924" lon="2.11823">
        <ele>139.83</ele>
        <time>2019-04-14T08:49:05Z</time>
      </trkpt>
      <trkpt lat="48.79239" lon="2.11808">
        <ele>139.47</ele>
        <time>2019-04-14T08:49:16Z</time>
      </trkpt>
      <trkpt lat="48.79236" lon="2.118">
        <ele>139.74</ele>
        <time>2019-04-14T08:49:21Z</time>
      </trkpt>
      <trkpt lat="48.79232" lon="2.11779">
        <ele>140.74</ele>
        <time>2019-04-14T08:49:35Z</time>
      </trkpt>
      <trkpt lat="48.7924" lon="2.11773">
        <ele>140.39</ele>
        <time>2019-04-14T08:49:47Z</time>
      </trkpt>
      <trkpt lat="48.79242" lon="2.1177">
        <ele>140.77</ele>
        <time>2019-04-14T08:50:04Z</time>
      </trkpt>
      <trkpt lat="48.79246" lon="2.11765">
        <ele>140.68</ele>
        <time>2019-04-14T08:50:09Z</time>
      </trkpt>
      <trkpt lat="48.79248" lon="2.11741">
        <ele>139.13</ele>
        <time>2019-04-14T08:50:25Z</time>
      </trkpt>
      <trkpt lat="48.79246" lon="2.11733">
        <ele>139.68</ele>
        <time>2019-04-14T08:50:41Z</time>
      </trkpt>
      <trkpt lat="48.79247" lon="2.11709">
        <ele>139.08</ele>
        <time>2019-04-14T08:51:00Z</time>
      </trkpt>
      <trkpt lat="48.79247" lon="2.11701">
        <ele>138.73</ele>
        <time>2019-04-14T08:51:05Z</time>
      </trkpt>
      <trkpt lat="48.79248" lon="2.11665">
        <ele>136.96</ele>
        <time>2019-04-14T08:51:24Z</time>
      </trkpt>
      <trkpt lat="48.7925" lon="2.11632">
        <ele>134.1</ele>
        <time>2019-04-14T08:51:43Z</time>
      </trkpt>
      <trkpt lat="48.79255" lon="2.11607">
        <ele>131.17</ele>
        <time>2019-04-14T08:51:59Z</time>
      </trkpt>
      <trkpt lat="48.79256" lon="2.11601">
        <ele>130.57</ele>
        <time>2019-04-14T08:52:02Z</time>
      </trkpt>
      <trkpt lat="48.79254" lon="2.11588">
        <ele>129.55</ele>
        <time>2019-04-14T08:52:09Z</time>
      </trkpt>
      <trkpt lat="48.79252" lon="2.11557">
        <ele>126.73</ele>
        <time>2019-04-14T08:52:24Z</time>
      </trkpt>
      <trkpt lat="48.79253" lon="2.11546">
        <ele>126.46</ele>
        <time>2019-04-14T08:52:30Z</time>
      </trkpt>
      <trkpt lat="48.79256" lon="2.11538">
        <ele>125.6</ele>
        <time>2019-04-14T08:52:35Z</time>
      </trkpt>
      <trkpt lat="48.79256" lon="2.11509">
        <ele>124.9</ele>
        <time>2019-04-14T08:52:51Z</time>
      </trkpt>
      <trkpt lat="48.79253" lon="2.1149">
        <ele>124.86</ele>
        <time>2019-04-14T08:53:02Z</time>
      </trkpt>
      <trkpt lat="48.79249" lon="2.1147">
        <ele>125.8</ele>
        <time>2019-04-14T08:53:16Z</time>
      </trkpt>
      <trkpt lat="48.79247" lon="2.11435">
        <ele>127.47</ele>
        <time>2019-04-14T08:53:36Z</time>
      </trkpt>
      <trkpt lat="48.79254" lon="2.11404">
        <ele>129.83</ele>
        <time>2019-04-14T08:53:56Z</time>
      </trkpt>
      <trkpt lat="48.79254" lon="2.11368">
        <ele>131.8</ele>
        <time>2019-04-14T08:54:15Z</time>
      </trkpt>
      <trkpt lat="48.79259" lon="2.11335">
        <ele>134.06</ele>
        <time>2019-04-14T08:54:33Z</time>
      </trkpt>
      <trkpt lat="48.79265" lon="2.11314">
        <ele>135.61</ele>
        <time>2019-04-14T08:54:50Z</time>
      </trkpt>
      <trkpt lat="48.79271" lon="2.11278">
        <ele>137.27</ele>
        <time>2019-04-14T08:55:09Z</time>
      </trkpt>
      <trkpt lat="48.79273" lon="2.11249">
        <ele>139.7</ele>
        <time>2019-04-14T08:55:28Z</time>
      </trkpt>
      <trkpt lat="48.79284" lon="2.11222">
        <ele>141.74</ele>
        <time>2019-04-14T08:55:50Z</time>
      </trkpt>
      <trkpt lat="48.79285" lon="2.11222">
        <ele>142.28</ele>
        <time>2019-04-14T08:55:51Z</time>
      </trkpt>
      <trkpt lat="48.79301" lon="2.11226">
        <ele>143</ele>
        <time>2019-04-14T08:56:12Z</time>
      </trkpt>
      <trkpt lat="48.79299" lon="2.11222">
        <ele>143.06</ele>
        <time>2019-04-14T08:56:24Z</time>
      </trkpt>
      <trkpt lat="48.79294" lon="2.11216">
        <ele>141.57</ele>
        <time>2019-04-14T08:56:43Z</time>
      </trkpt>
      <trkpt lat="48.79296" lon="2.11214">
        <ele>142.22</ele>
        <time>2019-04-14T08:57:13Z</time>
      </trkpt>
      <trkpt lat="48.793" lon="2.112">
        <ele>142.87</ele>
        <time>2019-04-14T08:57:34Z</time>
      </trkpt>
      <trkpt lat="48.79303" lon="2.11174">
        <ele>144.73</ele>
        <time>2019-04-14T08:57:53Z</time>
      </trkpt>
      <trkpt lat="48.79303" lon="2.1115">
        <ele>146.34</ele>
        <time>2019-04-14T08:58:12Z</time>
      </trkpt>
      <trkpt lat="48.79302" lon="2.1114">
        <ele>146.28</ele>
        <time>2019-04-14T08:58:20Z</time>
      </trkpt>
      <trkpt lat="48.79305" lon="2.11125">
        <ele>147.77</ele>
        <time>2019-04-14T08:58:35Z</time>
      </trkpt>
      <trkpt lat="48.79313" lon="2.11103">
        <ele>148.76</ele>
        <time>2019-04-14T08:58:54Z</time>
      </trkpt>
      <trkpt lat="48.79332" lon="2.11081">
        <ele>151.58</ele>
        <time>2019-04-14T08:59:17Z</time>
      </trkpt>
      <trkpt lat="48.7934" lon="2.11067">
        <ele>152.51</ele>
        <time>2019-04-14T08:59:33Z</time>
      </trkpt>
      <trkpt lat="48.79351" lon="2.11042">
        <ele>154.44</ele>
        <time>2019-04-14T08:59:51Z</time>
      </trkpt>
      <trkpt lat="48.79352" lon="2.11018">
        <ele>156.11</ele>
        <time>2019-04-14T09:00:11Z</time>
      </trkpt>
      <trkpt lat="48.79341" lon="2.10994">
        <ele>157.94</ele>
        <time>2019-04-14T09:00:31Z</time>
      </trkpt>
      <trkpt lat="48.7934" lon="2.10983">
        <ele>159.66</ele>
        <time>2019-04-14T09:00:38Z</time>
      </trkpt>
      <trkpt lat="48.79337" lon="2.10973">
        <ele>158.96</ele>
        <time>2019-04-14T09:00:59Z</time>
      </trkpt>
      <trkpt lat="48.79341" lon="2.10962">
        <ele>160.42</ele>
        <time>2019-04-14T09:01:12Z</time>
      </trkpt>
      <trkpt lat="48.79349" lon="2.10942">
        <ele>160.97</ele>
        <time>2019-04-14T09:01:30Z</time>
      </trkpt>
      <trkpt lat="48.79363" lon="2.10919">
        <ele>162.03</ele>
        <time>2019-04-14T09:01:50Z</time>
      </trkpt>
      <trkpt lat="48.79369" lon="2.10912">
        <ele>161.66</ele>
        <time>2019-04-14T09:01:57Z</time>
      </trkpt>
      <trkpt lat="48.79381" lon="2.10899">
        <ele>161.6</ele>
        <time>2019-04-14T09:02:11Z</time>
      </trkpt>
      <trkpt lat="48.79394" lon="2.10884">
        <ele>160.61</ele>
        <time>2019-04-14T09:02:27Z</time>
      </trkpt>
      <trkpt lat="48.7941" lon="2.10867">
        <ele>160.12</ele>
        <time>2019-04-14T09:02:45Z</time>
      </trkpt>
      <trkpt lat="48.79427" lon="2.10846">
        <ele>160.23</ele>
        <time>2019-04-14T09:03:05Z</time>
      </trkpt>
      <trkpt lat="48.79444" lon="2.10831">
        <ele>160.01</ele>
        <time>2019-04-14T09:03:23Z</time>
      </trkpt>
      <trkpt lat="48.79465" lon="2.10817">
        <ele>158.56</ele>
        <time>2019-04-14T09:03:43Z</time>
      </trkpt>
      <trkpt lat="48.79472" lon="2.10814">
        <ele>158.44</ele>
        <time>2019-04-14T09:03:50Z</time>
      </trkpt>
      <trkpt lat="48.79474" lon="2.10813">
        <ele>158.58</ele>
        <time>2019-04-14T09:03:53Z</time>
      </trkpt>
      <trkpt lat="48.79476" lon="2.10811">
        <ele>159.06</ele>
        <time>2019-04-14T09:03:55Z</time>
      </trkpt>
      <trkpt lat="48.79485" lon="2.1081">
        <ele>158.21</ele>
        <time>2019-04-14T09:04:15Z</time>
      </trkpt>
      <trkpt lat="48.79485" lon="2.10809">
        <ele>157.89</ele>
        <time>2019-04-14T09:04:35Z</time>
      </trkpt>
      <trkpt lat="48.79485" lon="2.10803">
        <ele>158.27</ele>
        <time>2019-04-14T09:04:58Z</time>
      </trkpt>
      <trkpt lat="48.79485" lon="2.10805">
        <ele>158.86</ele>
        <time>2019-04-14T09:05:20Z</time>
      </trkpt>
      <trkpt lat="48.79485" lon="2.10808">
        <ele>158.7</ele>
        <time>2019-04-14T09:05:42Z</time>
      </trkpt>
      <trkpt lat="48.79486" lon="2.10814">
        <ele>158.41</ele>
        <time>2019-04-14T09:06:02Z</time>
      </trkpt>
      <trkpt lat="48.79481" lon="2.10807">
        <ele>158.48</ele>
        <time>2019-04-14T09:06:21Z</time>
      </trkpt>
      <trkpt lat="48.79478" lon="2.10804">
        <ele>158.49</ele>
        <time>2019-04-14T09:06:24Z</time>
      </trkpt>
      <trkpt lat="48.79469" lon="2.10782">
        <ele>158.49</ele>
        <time>2019-04-14T09:06:42Z</time>
      </trkpt>
      <trkpt lat="48.79465" lon="2.10774">
        <ele>158.66</ele>
        <time>2019-04-14T09:07:02Z</time>
      </trkpt>
      <trkpt lat="48.79463" lon="2.1076">
        <ele>157.27</ele>
        <time>2019-04-14T09:07:24Z</time>
      </trkpt>
      <trkpt lat="48.79461" lon="2.10749">
        <ele>155.55</ele>
        <time>2019-04-14T09:07:48Z</time>
      </trkpt>
      <trkpt lat="48.79451" lon="2.10746">
        <ele>156.34</ele>
        <time>2019-04-14T09:08:06Z</time>
      </trkpt>
      <trkpt lat="48.79435" lon="2.10751">
        <ele>157.01</ele>
        <time>2019-04-14T09:08:27Z</time>
      </trkpt>
      <trkpt lat="48.79418" lon="2.10753">
        <ele>157.88</ele>
        <time>2019-04-14T09:08:46Z</time>
      </trkpt>
      <trkpt lat="48.79395" lon="2.1075">
        <ele>157.9</ele>
        <time>2019-04-14T09:09:03Z</time>
      </trkpt>
      <trkpt lat="48.79373" lon="2.10733">
        <ele>157.31</ele>
        <time>2019-04-14T09:09:23Z</time>
      </trkpt>
      <trkpt lat="48.79369" lon="2.10729">
        <ele>157.56</ele>
        <time>2019-04-14T09:09:26Z</time>
      </trkpt>
      <trkpt lat="48.79353" lon="2.1071">
        <ele>157.26</ele>
        <time>2019-04-14T09:09:43Z</time>
      </trkpt>
      <trkpt lat="48.79351" lon="2.10677">
        <ele>155.89</ele>
        <time>2019-04-14T09:10:00Z</time>
      </trkpt>
      <trkpt lat="48.79354" lon="2.10655">
        <ele>154.62</ele>
        <time>2019-04-14T09:10:20Z</time>
      </trkpt>
      <trkpt lat="48.79351" lon="2.1063">
        <ele>155.41</ele>
        <time>2019-04-14T09:10:37Z</time>
      </trkpt>
      <trkpt lat="48.79354" lon="2.10611">
        <ele>155.53</ele>
        <time>2019-04-14T09:10:58Z</time>
      </trkpt>
      <trkpt lat="48.79361" lon="2.10599">
        <ele>155.85</ele>
        <time>2019-04-14T09:11:18Z</time>
      </trkpt>
      <trkpt lat="48.79373" lon="2.10576">
        <ele>155.24</ele>
        <time>2019-04-14T09:11:35Z</time>
      </trkpt>
      <trkpt lat="48.79379" lon="2.10555">
        <ele>155.15</ele>
        <time>2019-04-14T09:11:48Z</time>
      </trkpt>
      <trkpt lat="48.7938" lon="2.10553">
        <ele>155.28</ele>
        <time>2019-04-14T09:11:50Z</time>
      </trkpt>
      <trkpt lat="48.79386" lon="2.10545">
        <ele>154.73</ele>
        <time>2019-04-14T09:12:03Z</time>
      </trkpt>
      <trkpt lat="48.79402" lon="2.10538">
        <ele>151.52</ele>
        <time>2019-04-14T09:12:18Z</time>
      </trkpt>
      <trkpt lat="48.79421" lon="2.10536">
        <ele>148.3</ele>
        <time>2019-04-14T09:12:37Z</time>
      </trkpt>
      <trkpt lat="48.79436" lon="2.10529">
        <ele>145.1</ele>
        <time>2019-04-14T09:12:55Z</time>
      </trkpt>
      <trkpt lat="48.79451" lon="2.10518">
        <ele>141.69</ele>
        <time>2019-04-14T09:13:12Z</time>
      </trkpt>
      <trkpt lat="48.79471" lon="2.10509">
        <ele>139.98</ele>
        <time>2019-04-14T09:13:33Z</time>
      </trkpt>
      <trkpt lat="48.79491" lon="2.10501">
        <ele>136.82</ele>
        <time>2019-04-14T09:13:54Z</time>
      </trkpt>
      <trkpt lat="48.79503" lon="2.10488">
        <ele>133.99</ele>
        <time>2019-04-14T09:14:09Z</time>
      </trkpt>
      <trkpt lat="48.79507" lon="2.10469">
        <ele>132.05</ele>
        <time>2019-04-14T09:14:29Z</time>
      </trkpt>
      <trkpt lat="48.795" lon="2.10446">
        <ele>129.32</ele>
        <time>2019-04-14T09:14:47Z</time>
      </trkpt>
      <trkpt lat="48.79496" lon="2.10417">
        <ele>126.28</ele>
        <time>2019-04-14T09:15:02Z</time>
      </trkpt>
      <trkpt lat="48.795" lon="2.10394">
        <ele>123.09</ele>
        <time>2019-04-14T09:15:17Z</time>
      </trkpt>
      <trkpt lat="48.79507" lon="2.10364">
        <ele>120.91</ele>
        <time>2019-04-14T09:15:35Z</time>
      </trkpt>
      <trkpt lat="48.79512" lon="2.10329">
        <ele>122</ele>
        <time>2019-04-14T09:15:54Z</time>
      </trkpt>
      <trkpt lat="48.79512" lon="2.10298">
        <ele>125.19</ele>
        <time>2019-04-14T09:16:15Z</time>
      </trkpt>
      <trkpt lat="48.79503" lon="2.10283">
        <ele>126.56</ele>
        <time>2019-04-14T09:16:26Z</time>
      </trkpt>
      <trkpt lat="48.79497" lon="2.10278">
        <ele>126.71</ele>
        <time>2019-04-14T09:16:30Z</time>
      </trkpt>
      <trkpt lat="48.79492" lon="2.10273">
        <ele>126.96</ele>
        <time>2019-04-14T09:16:34Z</time>
      </trkpt>
      <trkpt lat="48.79488" lon="2.1027">
        <ele>127.86</ele>
        <time>2019-04-14T09:16:38Z</time>
      </trkpt>
      <trkpt lat="48.79482" lon="2.10263">
        <ele>128.07</ele>
        <time>2019-04-14T09:16:43Z</time>
      </trkpt>
      <trkpt lat="48.79469" lon="2.10248">
        <ele>129.82</ele>
        <time>2019-04-14T09:16:56Z</time>
      </trkpt>
      <trkpt lat="48.79459" lon="2.1024">
        <ele>131.29</ele>
        <time>2019-04-14T09:17:08Z</time>
      </trkpt>
      <trkpt lat="48.79447" lon="2.10227">
        <ele>133.27</ele>
        <time>2019-04-14T09:17:24Z</time>
      </trkpt>
      <trkpt lat="48.7944" lon="2.10206">
        <ele>136.1</ele>
        <time>2019-04-14T09:17:41Z</time>
      </trkpt>
      <trkpt lat="48.79436" lon="2.10195">
        <ele>136.8</ele>
        <time>2019-04-14T09:18:02Z</time>
      </trkpt>
      <trkpt lat="48.79439" lon="2.10191">
        <ele>136.33</ele>
        <time>2019-04-14T09:18:21Z</time>
      </trkpt>
      <trkpt lat="48.79441" lon="2.10181">
        <ele>135.2</ele>
        <time>2019-04-14T09:18:40Z</time>
      </trkpt>
      <trkpt lat="48.79441" lon="2.1016">
        <ele>134.53</ele>
        <time>2019-04-14T09:18:56Z</time>
      </trkpt>
      <trkpt lat="48.79444" lon="2.10144">
        <ele>134.47</ele>
        <time>2019-04-14T09:19:09Z</time>
      </trkpt>
      <trkpt lat="48.79439" lon="2.10132">
        <ele>135.72</ele>
        <time>2019-04-14T09:19:24Z</time>
      </trkpt>
      <trkpt lat="48.79439" lon="2.1012">
        <ele>139.11</ele>
        <time>2019-04-14T09:19:35Z</time>
      </trkpt>
      <trkpt lat="48.7944" lon="2.1011">
        <ele>139.05</ele>
        <time>2019-04-14T09:19:42Z</time>
      </trkpt>
      <trkpt lat="48.79442" lon="2.10096">
        <ele>142.65</ele>
        <time>2019-04-14T09:20:00Z</time>
      </trkpt>
      <trkpt lat="48.79446" lon="2.10085">
        <ele>142.38</ele>
        <time>2019-04-14T09:20:18Z</time>
      </trkpt>
      <trkpt lat="48.79445" lon="2.10081">
        <ele>145.64</ele>
        <time>2019-04-14T09:20:23Z</time>
      </trkpt>
      <trkpt lat="48.79446" lon="2.10069">
        <ele>148.81</ele>
        <time>2019-04-14T09:20:43Z</time>
      </trkpt>
      <trkpt lat="48.79452" lon="2.10049">
        <ele>149.26</ele>
        <time>2019-04-14T09:21:00Z</time>
      </trkpt>
      <trkpt lat="48.79458" lon="2.10038">
        <ele>149.09</ele>
        <time>2019-04-14T09:21:18Z</time>
      </trkpt>
      <trkpt lat="48.79459" lon="2.1003">
        <ele>150.36</ele>
        <time>2019-04-14T09:21:27Z</time>
      </trkpt>
      <trkpt lat="48.79469" lon="2.10004">
        <ele>152.13</ele>
        <time>2019-04-14T09:21:47Z</time>
      </trkpt>
      <trkpt lat="48.79477" lon="2.09984">
        <ele>154.35</ele>
        <time>2019-04-14T09:22:03Z</time>
      </trkpt>
      <trkpt lat="48.79484" lon="2.09955">
        <ele>155.43</ele>
        <time>2019-04-14T09:22:21Z</time>
      </trkpt>
      <trkpt lat="48.79487" lon="2.09931">
        <ele>156.59</ele>
        <time>2019-04-14T09:22:40Z</time>
      </trkpt>
      <trkpt lat="48.79485" lon="2.09914">
        <ele>156.62</ele>
        <time>2019-04-14T09:22:51Z</time>
      </trkpt>
      <trkpt lat="48.79483" lon="2.0989">
        <ele>156.98</ele>
        <time>2019-04-14T09:23:10Z</time>
      </trkpt>
      <trkpt lat="48.79479" lon="2.0987">
        <ele>157.6</ele>
        <time>2019-04-14T09:23:30Z</time>
      </trkpt>
      <trkpt lat="48.79477" lon="2.09835">
        <ele>157.14</ele>
        <time>2019-04-14T09:23:52Z</time>
      </trkpt>
      <trkpt lat="48.79474" lon="2.09801">
        <ele>157.59</ele>
        <time>2019-04-14T09:24:12Z</time>
      </trkpt>
      <trkpt lat="48.79468" lon="2.09761">
        <ele>157.53</ele>
        <time>2019-04-14T09:24:30Z</time>
      </trkpt>
      <trkpt lat="48.79461" lon="2.09736">
        <ele>156.64</ele>
        <time>2019-04-14T09:24:50Z</time>
      </trkpt>
      <trkpt lat="48.79449" lon="2.09711">
        <ele>158.19</ele>
        <time>2019-04-14T09:25:11Z</time>
      </trkpt>
      <trkpt lat="48.79435" lon="2.09698">
        <ele>158.57</ele>
        <time>2019-04-14T09:25:28Z</time>
      </trkpt>
      <trkpt lat="48.79434" lon="2.09699">
        <ele>158.82</ele>
        <time>2019-04-14T09:25:29Z</time>
      </trkpt>
      <trkpt lat="48.79418" lon="2.09675">
        <ele>160.75</ele>
        <time>2019-04-14T09:25:48Z</time>
      </trkpt>
      <trkpt lat="48.79411" lon="2.09666">
        <ele>160.68</ele>
        <time>2019-04-14T09:26:10Z</time>
      </trkpt>
      <trkpt lat="48.7941" lon="2.09665">
        <ele>160.59</ele>
        <time>2019-04-14T09:26:33Z</time>
      </trkpt>
      <trkpt lat="48.79408" lon="2.09664">
        <ele>159.88</ele>
        <time>2019-04-14T09:27:00Z</time>
      </trkpt>
      <trkpt lat="48.79404" lon="2.09666">
        <ele>159.65</ele>
        <time>2019-04-14T09:27:29Z</time>
      </trkpt>
      <trkpt lat="48.79407" lon="2.09667">
        <ele>160.45</ele>
        <time>2019-04-14T09:27:58Z</time>
      </trkpt>
      <trkpt lat="48.79405" lon="2.09667">
        <ele>160.66</ele>
        <time>2019-04-14T09:28:25Z</time>
      </trkpt>
      <trkpt lat="48.79404" lon="2.09661">
        <ele>160.42</ele>
        <time>2019-04-14T09:28:53Z</time>
      </trkpt>
      <trkpt lat="48.79402" lon="2.09663">
        <ele>160.37</ele>
        <time>2019-04-14T09:29:22Z</time>
      </trkpt>
      <trkpt lat="48.79407" lon="2.09666">
        <ele>160.31</ele>
        <time>2019-04-14T09:29:52Z</time>
      </trkpt>
      <trkpt lat="48.79411" lon="2.09662">
        <ele>160.87</ele>
        <time>2019-04-14T09:30:19Z</time>
      </trkpt>
      <trkpt lat="48.79411" lon="2.09656">
        <ele>160.25</ele>
        <time>2019-04-14T09:30:39Z</time>
      </trkpt>
      <trkpt lat="48.79407" lon="2.09638">
        <ele>160.57</ele>
        <time>2019-04-14T09:31:02Z</time>
      </trkpt>
      <trkpt lat="48.79403" lon="2.09616">
        <ele>160.26</ele>
        <time>2019-04-14T09:31:23Z</time>
      </trkpt>
      <trkpt lat="48.79402" lon="2.09607">
        <ele>160.8</ele>
        <time>2019-04-14T09:31:28Z</time>
      </trkpt>
      <trkpt lat="48.794" lon="2.09569">
        <ele>160.5</ele>
        <time>2019-04-14T09:31:48Z</time>
      </trkpt>
      <trkpt lat="48.79402" lon="2.09542">
        <ele>159.56</ele>
        <time>2019-04-14T09:32:07Z</time>
      </trkpt>
      <trkpt lat="48.79398" lon="2.09515">
        <ele>159.68</ele>
        <time>2019-04-14T09:32:23Z</time>
      </trkpt>
      <trkpt lat="48.79389" lon="2.09489">
        <ele>159.06</ele>
        <time>2019-04-14T09:32:42Z</time>
      </trkpt>
      <trkpt lat="48.7938" lon="2.09458">
        <ele>159.11</ele>
        <time>2019-04-14T09:33:01Z</time>
      </trkpt>
      <trkpt lat="48.79377" lon="2.0944">
        <ele>160.35</ele>
        <time>2019-04-14T09:33:13Z</time>
      </trkpt>
      <trkpt lat="48.79375" lon="2.09399">
        <ele>159.78</ele>
        <time>2019-04-14T09:33:31Z</time>
      </trkpt>
      <trkpt lat="48.79372" lon="2.09368">
        <ele>159.84</ele>
        <time>2019-04-14T09:33:47Z</time>
      </trkpt>
      <trkpt lat="48.79371" lon="2.09331">
        <ele>159.32</ele>
        <time>2019-04-14T09:34:06Z</time>
      </trkpt>
      <trkpt lat="48.79367" lon="2.09299">
        <ele>159.04</ele>
        <time>2019-04-14T09:34:23Z</time>
      </trkpt>
      <trkpt lat="48.79367" lon="2.09297">
        <ele>158.94</ele>
        <time>2019-04-14T09:34:24Z</time>
      </trkpt>
      <trkpt lat="48.79364" lon="2.09278">
        <ele>159.16</ele>
        <time>2019-04-14T09:34:39Z</time>
      </trkpt>
      <trkpt lat="48.79363" lon="2.09242">
        <ele>158.2</ele>
        <time>2019-04-14T09:34:56Z</time>
      </trkpt>
      <trkpt lat="48.79365" lon="2.09203">
        <ele>156.28</ele>
        <time>2019-04-14T09:35:16Z</time>
      </trkpt>
      <trkpt lat="48.79364" lon="2.09162">
        <ele>154.42</ele>
        <time>2019-04-14T09:35:35Z</time>
      </trkpt>
      <trkpt lat="48.79362" lon="2.09134">
        <ele>154.85</ele>
        <time>2019-04-14T09:35:49Z</time>
      </trkpt>
      <trkpt lat="48.79361" lon="2.09106">
        <ele>153.25</ele>
        <time>2019-04-14T09:36:07Z</time>
      </trkpt>
      <trkpt lat="48.79363" lon="2.09073">
        <ele>151.6</ele>
        <time>2019-04-14T09:36:27Z</time>
      </trkpt>
      <trkpt lat="48.79358" lon="2.09046">
        <ele>151.6</ele>
        <time>2019-04-14T09:36:42Z</time>
      </trkpt>
      <trkpt lat="48.7935" lon="2.09013">
        <ele>151.82</ele>
        <time>2019-04-14T09:37:03Z</time>
      </trkpt>
      <trkpt lat="48.79335" lon="2.08997">
        <ele>152.17</ele>
        <time>2019-04-14T09:37:18Z</time>
      </trkpt>
      <trkpt lat="48.79324" lon="2.08984">
        <ele>153.6</ele>
        <time>2019-04-14T09:37:28Z</time>
      </trkpt>
      <trkpt lat="48.79315" lon="2.08972">
        <ele>152.7</ele>
        <time>2019-04-14T09:37:44Z</time>
      </trkpt>
      <trkpt lat="48.79314" lon="2.08971">
        <ele>152.63</ele>
        <time>2019-04-14T09:38:03Z</time>
      </trkpt>
      <trkpt lat="48.79313" lon="2.08964">
        <ele>151.49</ele>
        <time>2019-04-14T09:38:19Z</time>
      </trkpt>
      <trkpt lat="48.79315" lon="2.08964">
        <ele>151.08</ele>
        <time>2019-04-14T09:38:29Z</time>
      </trkpt>
      <trkpt lat="48.79318" lon="2.08956">
        <ele>151.29</ele>
        <time>2019-04-14T09:38:49Z</time>
      </trkpt>
      <trkpt lat="48.7932" lon="2.08942">
        <ele>150.64</ele>
        <time>2019-04-14T09:39:07Z</time>
      </trkpt>
      <trkpt lat="48.79322" lon="2.08925">
        <ele>149.58</ele>
        <time>2019-04-14T09:39:24Z</time>
      </trkpt>
      <trkpt lat="48.79321" lon="2.08924">
        <ele>148.99</ele>
        <time>2019-04-14T09:39:25Z</time>
      </trkpt>
      <trkpt lat="48.79324" lon="2.08903">
        <ele>145.84</ele>
        <time>2019-04-14T09:39:45Z</time>
      </trkpt>
      <trkpt lat="48.79325" lon="2.089">
        <ele>144.28</ele>
        <time>2019-04-14T09:39:50Z</time>
      </trkpt>
      <trkpt lat="48.79327" lon="2.08876">
        <ele>141.3</ele>
        <time>2019-04-14T09:40:09Z</time>
      </trkpt>
      <trkpt lat="48.79329" lon="2.0885">
        <ele>142.1</ele>
        <time>2019-04-14T09:40:27Z</time>
      </trkpt>
      <trkpt lat="48.79331" lon="2.08831">
        <ele>145.22</ele>
        <time>2019-04-14T09:40:46Z</time>
      </trkpt>
      <trkpt lat="48.7933" lon="2.0882">
        <ele>147.12</ele>
        <time>2019-04-14T09:40:57Z</time>
      </trkpt>
      <trkpt lat="48.79331" lon="2.08791">
        <ele>149.61</ele>
        <time>2019-04-14T09:41:16Z</time>
      </trkpt>
      <trkpt lat="48.79332" lon="2.0876">
        <ele>150.24</ele>
        <time>2019-04-14T09:41:36Z</time>
      </trkpt>
      <trkpt lat="48.79343" lon="2.08736">
        <ele>150.6</ele>
        <time>2019-04-14T09:41:55Z</time>
      </trkpt>
      <trkpt lat="48.79344" lon="2.08733">
        <ele>150.53</ele>
        <time>2019-04-14T09:41:57Z</time>
      </trkpt>
      <trkpt lat="48.79355" lon="2.08713">
        <ele>150.51</ele>
        <time>2019-04-14T09:42:13Z</time>
      </trkpt>
      <trkpt lat="48.79368" lon="2.08697">
        <ele>150.36</ele>
        <time>2019-04-14T09:42:28Z</time>
      </trkpt>
      <trkpt lat="48.7937" lon="2.08694">
        <ele>150.38</ele>
        <time>2019-04-14T09:42:30Z</time>
      </trkpt>
      <trkpt lat="48.79375" lon="2.08681">
        <ele>150.68</ele>
        <time>2019-04-14T09:42:37Z</time>
      </trkpt>
      <trkpt lat="48.79384" lon="2.08653">
        <ele>151.15</ele>
        <time>2019-04-14T09:42:53Z</time>
      </trkpt>
      <trkpt lat="48.79386" lon="2.0865">
        <ele>151.2</ele>
        <time>2019-04-14T09:42:56Z</time>
      </trkpt>
      <trkpt lat="48.79401" lon="2.08636">
        <ele>150.5</ele>
        <time>2019-04-14T09:43:13Z</time>
      </trkpt>
      <trkpt lat="48.79418" lon="2.08622">
        <ele>151.27</ele>
        <time>2019-04-14T09:43:30Z</time>
      </trkpt>
      <trkpt lat="48.79433" lon="2.08605">
        <ele>151.54</ele>
        <time>2019-04-14T09:43:49Z</time>
      </trkpt>
      <trkpt lat="48.79451" lon="2.08587">
        <ele>151.29</ele>
        <time>2019-04-14T09:44:07Z</time>
      </trkpt>
      <trkpt lat="48.79464" lon="2.08573">
        <ele>151.22</ele>
        <time>2019-04-14T09:44:21Z</time>
      </trkpt>
      <trkpt lat="48.79477" lon="2.08556">
        <ele>151.2</ele>
        <time>2019-04-14T09:44:36Z</time>
      </trkpt>
      <trkpt lat="48.79484" lon="2.08536">
        <ele>151.83</ele>
        <time>2019-04-14T09:44:49Z</time>
      </trkpt>
      <trkpt lat="48.79493" lon="2.08525">
        <ele>151.62</ele>
        <time>2019-04-14T09:45:00Z</time>
      </trkpt>
      <trkpt lat="48.79507" lon="2.08506">
        <ele>151.76</ele>
        <time>2019-04-14T09:45:17Z</time>
      </trkpt>
      <trkpt lat="48.7952" lon="2.08483">
        <ele>151.32</ele>
        <time>2019-04-14T09:45:35Z</time>
      </trkpt>
      <trkpt lat="48.79526" lon="2.08458">
        <ele>150.89</ele>
        <time>2019-04-14T09:45:50Z</time>
      </trkpt>
      <trkpt lat="48.79532" lon="2.08429">
        <ele>151.12</ele>
        <time>2019-04-14T09:46:06Z</time>
      </trkpt>
      <trkpt lat="48.79532" lon="2.08408">
        <ele>150.52</ele>
        <time>2019-04-14T09:46:21Z</time>
      </trkpt>
      <trkpt lat="48.79534" lon="2.08377">
        <ele>150.84</ele>
        <time>2019-04-14T09:46:39Z</time>
      </trkpt>
      <trkpt lat="48.79538" lon="2.08347">
        <ele>150.78</ele>
        <time>2019-04-14T09:46:58Z</time>
      </trkpt>
      <trkpt lat="48.79542" lon="2.08312">
        <ele>149.74</ele>
        <time>2019-04-14T09:47:15Z</time>
      </trkpt>
      <trkpt lat="48.79549" lon="2.08287">
        <ele>148.98</ele>
        <time>2019-04-14T09:47:31Z</time>
      </trkpt>
      <trkpt lat="48.79561" lon="2.08269">
        <ele>148.73</ele>
        <time>2019-04-14T09:47:46Z</time>
      </trkpt>
      <trkpt lat="48.79574" lon="2.08243">
        <ele>149.23</ele>
        <time>2019-04-14T09:48:06Z</time>
      </trkpt>
      <trkpt lat="48.79586" lon="2.08218">
        <ele>149.3</ele>
        <time>2019-04-14T09:48:23Z</time>
      </trkpt>
      <trkpt lat="48.79599" lon="2.08202">
        <ele>149.11</ele>
        <time>2019-04-14T09:48:36Z</time>
      </trkpt>
      <trkpt lat="48.79609" lon="2.08186">
        <ele>149.32</ele>
        <time>2019-04-14T09:48:52Z</time>
      </trkpt>
      <trkpt lat="48.79617" lon="2.08161">
        <ele>148.55</ele>
        <time>2019-04-14T09:49:10Z</time>
      </trkpt>
      <trkpt lat="48.79624" lon="2.08136">
        <ele>147.75</ele>
        <time>2019-04-14T09:49:32Z</time>
      </trkpt>
      <trkpt lat="48.79632" lon="2.08105">
        <ele>147.18</ele>
        <time>2019-04-14T09:49:55Z</time>
      </trkpt>
      <trkpt lat="48.79642" lon="2.08069">
        <ele>146.1</ele>
        <time>2019-04-14T09:50:14Z</time>
      </trkpt>
      <trkpt lat="48.79653" lon="2.08033">
        <ele>145.62</ele>
        <time>2019-04-14T09:50:35Z</time>
      </trkpt>
      <trkpt lat="48.7966" lon="2.08007">
        <ele>144.14</ele>
        <time>2019-04-14T09:50:51Z</time>
      </trkpt>
      <trkpt lat="48.79669" lon="2.07982">
        <ele>143.61</ele>
        <time>2019-04-14T09:51:05Z</time>
      </trkpt>
      <trkpt lat="48.79678" lon="2.07937">
        <ele>142.65</ele>
        <time>2019-04-14T09:51:23Z</time>
      </trkpt>
      <trkpt lat="48.79683" lon="2.07889">
        <ele>141.27</ele>
        <time>2019-04-14T09:51:39Z</time>
      </trkpt>
      <trkpt lat="48.79691" lon="2.07856">
        <ele>140.53</ele>
        <time>2019-04-14T09:51:55Z</time>
      </trkpt>
      <trkpt lat="48.79698" lon="2.07834">
        <ele>140.16</ele>
        <time>2019-04-14T09:52:09Z</time>
      </trkpt>
      <trkpt lat="48.79704" lon="2.07798">
        <ele>140.19</ele>
        <time>2019-04-14T09:52:25Z</time>
      </trkpt>
      <trkpt lat="48.79713" lon="2.07764">
        <ele>139.73</ele>
        <time>2019-04-14T09:52:45Z</time>
      </trkpt>
      <trkpt lat="48.79722" lon="2.07731">
        <ele>140.56</ele>
        <time>2019-04-14T09:53:05Z</time>
      </trkpt>
      <trkpt lat="48.79722" lon="2.07727">
        <ele>140.39</ele>
        <time>2019-04-14T09:53:07Z</time>
      </trkpt>
      <trkpt lat="48.79725" lon="2.07708">
        <ele>140.45</ele>
        <time>2019-04-14T09:53:17Z</time>
      </trkpt>
      <trkpt lat="48.79726" lon="2.07704">
        <ele>140.47</ele>
        <time>2019-04-14T09:53:19Z</time>
      </trkpt>
      <trkpt lat="48.79736" lon="2.07678">
        <ele>140.01</ele>
        <time>2019-04-14T09:53:36Z</time>
      </trkpt>
      <trkpt lat="48.79737" lon="2.07645">
        <ele>140.25</ele>
        <time>2019-04-14T09:53:50Z</time>
      </trkpt>
      <trkpt lat="48.79738" lon="2.0762">
        <ele>140.06</ele>
        <time>2019-04-14T09:54:03Z</time>
      </trkpt>
      <trkpt lat="48.79745" lon="2.07579">
        <ele>140.6</ele>
        <time>2019-04-14T09:54:24Z</time>
      </trkpt>
      <trkpt lat="48.79749" lon="2.07558">
        <ele>141.15</ele>
        <time>2019-04-14T09:54:41Z</time>
      </trkpt>
      <trkpt lat="48.79744" lon="2.07537">
        <ele>141.2</ele>
        <time>2019-04-14T09:55:01Z</time>
      </trkpt>
      <trkpt lat="48.79739" lon="2.07542">
        <ele>140.76</ele>
        <time>2019-04-14T09:55:27Z</time>
      </trkpt>
      <trkpt lat="48.79734" lon="2.07539">
        <ele>140.96</ele>
        <time>2019-04-14T09:55:48Z</time>
      </trkpt>
      <trkpt lat="48.79719" lon="2.07539">
        <ele>140.52</ele>
        <time>2019-04-14T09:56:04Z</time>
      </trkpt>
      <trkpt lat="48.79718" lon="2.07538">
        <ele>140.98</ele>
        <time>2019-04-14T09:56:05Z</time>
      </trkpt>
      <trkpt lat="48.79703" lon="2.07523">
        <ele>140.61</ele>
        <time>2019-04-14T09:56:21Z</time>
      </trkpt>
      <trkpt lat="48.79685" lon="2.07512">
        <ele>140.06</ele>
        <time>2019-04-14T09:56:38Z</time>
      </trkpt>
      <trkpt lat="48.7967" lon="2.07504">
        <ele>139.6</ele>
        <time>2019-04-14T09:56:55Z</time>
      </trkpt>
      <trkpt lat="48.7965" lon="2.07486">
        <ele>139.37</ele>
        <time>2019-04-14T09:57:12Z</time>
      </trkpt>
      <trkpt lat="48.79634" lon="2.07481">
        <ele>138.66</ele>
        <time>2019-04-14T09:57:29Z</time>
      </trkpt>
      <trkpt lat="48.79616" lon="2.07474">
        <ele>137.7</ele>
        <time>2019-04-14T09:57:47Z</time>
      </trkpt>
      <trkpt lat="48.79595" lon="2.07459">
        <ele>136.69</ele>
        <time>2019-04-14T09:58:05Z</time>
      </trkpt>
      <trkpt lat="48.79579" lon="2.0744">
        <ele>136.6</ele>
        <time>2019-04-14T09:58:21Z</time>
      </trkpt>
      <trkpt lat="48.79564" lon="2.07425">
        <ele>136.35</ele>
        <time>2019-04-14T09:58:35Z</time>
      </trkpt>
      <trkpt lat="48.79545" lon="2.07412">
        <ele>135.86</ele>
        <time>2019-04-14T09:58:54Z</time>
      </trkpt>
      <trkpt lat="48.79526" lon="2.07396">
        <ele>135.61</ele>
        <time>2019-04-14T09:59:12Z</time>
      </trkpt>
      <trkpt lat="48.79511" lon="2.07385">
        <ele>134.57</ele>
        <time>2019-04-14T09:59:28Z</time>
      </trkpt>
      <trkpt lat="48.79494" lon="2.07377">
        <ele>134.67</ele>
        <time>2019-04-14T09:59:42Z</time>
      </trkpt>
      <trkpt lat="48.79484" lon="2.07373">
        <ele>134.29</ele>
        <time>2019-04-14T09:59:51Z</time>
      </trkpt>
      <trkpt lat="48.79477" lon="2.07364">
        <ele>134.18</ele>
        <time>2019-04-14T09:59:58Z</time>
      </trkpt>
      <trkpt lat="48.79463" lon="2.07348">
        <ele>134.08</ele>
        <time>2019-04-14T10:00:12Z</time>
      </trkpt>
      <trkpt lat="48.79443" lon="2.07335">
        <ele>133.64</ele>
        <time>2019-04-14T10:00:27Z</time>
      </trkpt>
      <trkpt lat="48.79427" lon="2.07314">
        <ele>133</ele>
        <time>2019-04-14T10:00:43Z</time>
      </trkpt>
      <trkpt lat="48.7942" lon="2.07308">
        <ele>133.69</ele>
        <time>2019-04-14T10:00:56Z</time>
      </trkpt>
      <trkpt lat="48.79417" lon="2.07294">
        <ele>133.13</ele>
        <time>2019-04-14T10:01:10Z</time>
      </trkpt>
      <trkpt lat="48.79415" lon="2.07287">
        <ele>133.5</ele>
        <time>2019-04-14T10:01:15Z</time>
      </trkpt>
      <trkpt lat="48.79415" lon="2.07271">
        <ele>133.27</ele>
        <time>2019-04-14T10:01:27Z</time>
      </trkpt>
      <trkpt lat="48.79415" lon="2.07265">
        <ele>132.94</ele>
        <time>2019-04-14T10:01:31Z</time>
      </trkpt>
      <trkpt lat="48.79416" lon="2.07256">
        <ele>133.64</ele>
        <time>2019-04-14T10:01:37Z</time>
      </trkpt>
      <trkpt lat="48.79421" lon="2.07219">
        <ele>133.74</ele>
        <time>2019-04-14T10:01:58Z</time>
      </trkpt>
      <trkpt lat="48.79429" lon="2.07207">
        <ele>133.74</ele>
        <time>2019-04-14T10:02:09Z</time>
      </trkpt>
      <trkpt lat="48.79433" lon="2.07204">
        <ele>133.39</ele>
        <time>2019-04-14T10:02:13Z</time>
      </trkpt>
      <trkpt lat="48.79437" lon="2.07196">
        <ele>134.41</ele>
        <time>2019-04-14T10:02:28Z</time>
      </trkpt>
      <trkpt lat="48.79436" lon="2.07194">
        <ele>134.18</ele>
        <time>2019-04-14T10:02:30Z</time>
      </trkpt>
      <trkpt lat="48.79436" lon="2.07186">
        <ele>134.35</ele>
        <time>2019-04-14T10:02:35Z</time>
      </trkpt>
      <trkpt lat="48.79432" lon="2.0718">
        <ele>134.17</ele>
        <time>2019-04-14T10:02:40Z</time>
      </trkpt>
      <trkpt lat="48.79423" lon="2.0717">
        <ele>134.03</ele>
        <time>2019-04-14T10:02:54Z</time>
      </trkpt>
      <trkpt lat="48.79421" lon="2.07171">
        <ele>134.43</ele>
        <time>2019-04-14T10:02:56Z</time>
      </trkpt>
      <trkpt lat="48.79417" lon="2.0717">
        <ele>134.15</ele>
        <time>2019-04-14T10:03:00Z</time>
      </trkpt>
      <trkpt lat="48.79405" lon="2.07171">
        <ele>134.35</ele>
        <time>2019-04-14T10:03:12Z</time>
      </trkpt>
      <trkpt lat="48.79395" lon="2.07167">
        <ele>134.26</ele>
        <time>2019-04-14T10:03:21Z</time>
      </trkpt>
      <trkpt lat="48.79393" lon="2.07166">
        <ele>133.92</ele>
        <time>2019-04-14T10:03:23Z</time>
      </trkpt>
      <trkpt lat="48.79377" lon="2.07159">
        <ele>133.25</ele>
        <time>2019-04-14T10:03:38Z</time>
      </trkpt>
      <trkpt lat="48.79362" lon="2.07155">
        <ele>133.56</ele>
        <time>2019-04-14T10:03:52Z</time>
      </trkpt>
      <trkpt lat="48.79357" lon="2.07153">
        <ele>134.06</ele>
        <time>2019-04-14T10:03:56Z</time>
      </trkpt>
      <trkpt lat="48.79335" lon="2.07144">
        <ele>134.07</ele>
        <time>2019-04-14T10:04:13Z</time>
      </trkpt>
      <trkpt lat="48.79332" lon="2.07145">
        <ele>134.4</ele>
        <time>2019-04-14T10:04:15Z</time>
      </trkpt>
      <trkpt lat="48.79329" lon="2.07142">
        <ele>133.87</ele>
        <time>2019-04-14T10:04:19Z</time>
      </trkpt>
      <trkpt lat="48.79321" lon="2.07139">
        <ele>134.5</ele>
        <time>2019-04-14T10:04:27Z</time>
      </trkpt>
      <trkpt lat="48.79305" lon="2.07135">
        <ele>134.01</ele>
        <time>2019-04-14T10:04:42Z</time>
      </trkpt>
      <trkpt lat="48.79299" lon="2.07135">
        <ele>134.49</ele>
        <time>2019-04-14T10:04:47Z</time>
      </trkpt>
      <trkpt lat="48.79281" lon="2.07123">
        <ele>134.31</ele>
        <time>2019-04-14T10:05:03Z</time>
      </trkpt>
      <trkpt lat="48.79266" lon="2.07116">
        <ele>134.12</ele>
        <time>2019-04-14T10:05:15Z</time>
      </trkpt>
      <trkpt lat="48.79246" lon="2.07111">
        <ele>134.64</ele>
        <time>2019-04-14T10:05:31Z</time>
      </trkpt>
      <trkpt lat="48.79225" lon="2.07099">
        <ele>134.51</ele>
        <time>2019-04-14T10:05:48Z</time>
      </trkpt>
      <trkpt lat="48.79204" lon="2.07093">
        <ele>134.76</ele>
        <time>2019-04-14T10:06:03Z</time>
      </trkpt>
      <trkpt lat="48.79191" lon="2.07085">
        <ele>133.88</ele>
        <time>2019-04-14T10:06:17Z</time>
      </trkpt>
      <trkpt lat="48.7917" lon="2.07082">
        <ele>134.45</ele>
        <time>2019-04-14T10:06:33Z</time>
      </trkpt>
      <trkpt lat="48.79152" lon="2.07078">
        <ele>135.32</ele>
        <time>2019-04-14T10:06:47Z</time>
      </trkpt>
      <trkpt lat="48.79147" lon="2.07078">
        <ele>134.94</ele>
        <time>2019-04-14T10:06:53Z</time>
      </trkpt>
      <trkpt lat="48.79138" lon="2.07079">
        <ele>134.99</ele>
        <time>2019-04-14T10:07:03Z</time>
      </trkpt>
      <trkpt lat="48.79139" lon="2.07087">
        <ele>135.19</ele>
        <time>2019-04-14T10:07:09Z</time>
      </trkpt>
      <trkpt lat="48.79134" lon="2.071">
        <ele>134.7</ele>
        <time>2019-04-14T10:07:23Z</time>
      </trkpt>
      <trkpt lat="48.79141" lon="2.07091">
        <ele>135.84</ele>
        <time>2019-04-14T10:07:42Z</time>
      </trkpt>
      <trkpt lat="48.79129" lon="2.07083">
        <ele>135.14</ele>
        <time>2019-04-14T10:07:59Z</time>
      </trkpt>
      <trkpt lat="48.79126" lon="2.07082">
        <ele>135.38</ele>
        <time>2019-04-14T10:08:02Z</time>
      </trkpt>
      <trkpt lat="48.79117" lon="2.07074">
        <ele>135.28</ele>
        <time>2019-04-14T10:08:08Z</time>
      </trkpt>
      <trkpt lat="48.79107" lon="2.07084">
        <ele>135.25</ele>
        <time>2019-04-14T10:08:24Z</time>
      </trkpt>
      <trkpt lat="48.79099" lon="2.07114">
        <ele>135.06</ele>
        <time>2019-04-14T10:08:45Z</time>
      </trkpt>
      <trkpt lat="48.79096" lon="2.07124">
        <ele>134.82</ele>
        <time>2019-04-14T10:08:52Z</time>
      </trkpt>
      <trkpt lat="48.7909" lon="2.07147">
        <ele>134.59</ele>
        <time>2019-04-14T10:09:08Z</time>
      </trkpt>
      <trkpt lat="48.79083" lon="2.07154">
        <ele>134.33</ele>
        <time>2019-04-14T10:09:14Z</time>
      </trkpt>
      <trkpt lat="48.79065" lon="2.07161">
        <ele>134.48</ele>
        <time>2019-04-14T10:09:28Z</time>
      </trkpt>
      <trkpt lat="48.79053" lon="2.07156">
        <ele>133.55</ele>
        <time>2019-04-14T10:09:38Z</time>
      </trkpt>
      <trkpt lat="48.79044" lon="2.0715">
        <ele>133.63</ele>
        <time>2019-04-14T10:09:46Z</time>
      </trkpt>
      <trkpt lat="48.79031" lon="2.07132">
        <ele>133</ele>
        <time>2019-04-14T10:10:02Z</time>
      </trkpt>
      <trkpt lat="48.79019" lon="2.07113">
        <ele>132.65</ele>
        <time>2019-04-14T10:10:17Z</time>
      </trkpt>
      <trkpt lat="48.79008" lon="2.07095">
        <ele>131.75</ele>
        <time>2019-04-14T10:10:31Z</time>
      </trkpt>
      <trkpt lat="48.78993" lon="2.07072">
        <ele>131.31</ele>
        <time>2019-04-14T10:10:49Z</time>
      </trkpt>
      <trkpt lat="48.78979" lon="2.07055">
        <ele>131.28</ele>
        <time>2019-04-14T10:11:06Z</time>
      </trkpt>
      <trkpt lat="48.78964" lon="2.07034">
        <ele>130.38</ele>
        <time>2019-04-14T10:11:23Z</time>
      </trkpt>
      <trkpt lat="48.78949" lon="2.07013">
        <ele>130.46</ele>
        <time>2019-04-14T10:11:39Z</time>
      </trkpt>
      <trkpt lat="48.78934" lon="2.07004">
        <ele>129.82</ele>
        <time>2019-04-14T10:11:54Z</time>
      </trkpt>
      <trkpt lat="48.78932" lon="2.07003">
        <ele>129.7</ele>
        <time>2019-04-14T10:11:56Z</time>
      </trkpt>
      <trkpt lat="48.78914" lon="2.06998">
        <ele>129.63</ele>
        <time>2019-04-14T10:12:12Z</time>
      </trkpt>
      <trkpt lat="48.78909" lon="2.06995">
        <ele>129.04</ele>
        <time>2019-04-14T10:12:31Z</time>
      </trkpt>
      <trkpt lat="48.78888" lon="2.0699">
        <ele>127.85</ele>
        <time>2019-04-14T10:12:51Z</time>
      </trkpt>
      <trkpt lat="48.7887" lon="2.0699">
        <ele>125.9</ele>
        <time>2019-04-14T10:13:06Z</time>
      </trkpt>
      <trkpt lat="48.78866" lon="2.06995">
        <ele>125.81</ele>
        <time>2019-04-14T10:13:23Z</time>
      </trkpt>
      <trkpt lat="48.78863" lon="2.06999">
        <ele>125.63</ele>
        <time>2019-04-14T10:13:43Z</time>
      </trkpt>
      <trkpt lat="48.78856" lon="2.07011">
        <ele>123.7</ele>
        <time>2019-04-14T10:14:01Z</time>
      </trkpt>
      <trkpt lat="48.78845" lon="2.07032">
        <ele>122.8</ele>
        <time>2019-04-14T10:14:19Z</time>
      </trkpt>
      <trkpt lat="48.78842" lon="2.07053">
        <ele>121.45</ele>
        <time>2019-04-14T10:14:37Z</time>
      </trkpt>
      <trkpt lat="48.78839" lon="2.07056">
        <ele>121.45</ele>
        <time>2019-04-14T10:14:41Z</time>
      </trkpt>
      <trkpt lat="48.78837" lon="2.07075">
        <ele>121.67</ele>
        <time>2019-04-14T10:15:01Z</time>
      </trkpt>
      <trkpt lat="48.78837" lon="2.07103">
        <ele>121.3</ele>
        <time>2019-04-14T10:15:20Z</time>
      </trkpt>
      <trkpt lat="48.78837" lon="2.0712">
        <ele>121.05</ele>
        <time>2019-04-14T10:15:32Z</time>
      </trkpt>
      <trkpt lat="48.78833" lon="2.0715">
        <ele>120.53</ele>
        <time>2019-04-14T10:15:49Z</time>
      </trkpt>
      <trkpt lat="48.7883" lon="2.07172">
        <ele>119.95</ele>
        <time>2019-04-14T10:16:05Z</time>
      </trkpt>
      <trkpt lat="48.78831" lon="2.07191">
        <ele>119.77</ele>
        <time>2019-04-14T10:16:18Z</time>
      </trkpt>
      <trkpt lat="48.7883" lon="2.07218">
        <ele>119.33</ele>
        <time>2019-04-14T10:16:37Z</time>
      </trkpt>
      <trkpt lat="48.78825" lon="2.07247">
        <ele>118.62</ele>
        <time>2019-04-14T10:16:55Z</time>
      </trkpt>
      <trkpt lat="48.78821" lon="2.07269">
        <ele>118.72</ele>
        <time>2019-04-14T10:17:05Z</time>
      </trkpt>
      <trkpt lat="48.78827" lon="2.07281">
        <ele>118.26</ele>
        <time>2019-04-14T10:17:32Z</time>
      </trkpt>
      <trkpt lat="48.78822" lon="2.07286">
        <ele>117.35</ele>
        <time>2019-04-14T10:18:01Z</time>
      </trkpt>
      <trkpt lat="48.78815" lon="2.07298">
        <ele>116.98</ele>
        <time>2019-04-14T10:18:30Z</time>
      </trkpt>
      <trkpt lat="48.78805" lon="2.07326">
        <ele>116.76</ele>
        <time>2019-04-14T10:18:50Z</time>
      </trkpt>
      <trkpt lat="48.78796" lon="2.07361">
        <ele>116.63</ele>
        <time>2019-04-14T10:19:11Z</time>
      </trkpt>
      <trkpt lat="48.78787" lon="2.07387">
        <ele>115.67</ele>
        <time>2019-04-14T10:19:28Z</time>
      </trkpt>
      <trkpt lat="48.78779" lon="2.07416">
        <ele>115.03</ele>
        <time>2019-04-14T10:19:47Z</time>
      </trkpt>
      <trkpt lat="48.78776" lon="2.07447">
        <ele>114.93</ele>
        <time>2019-04-14T10:20:05Z</time>
      </trkpt>
      <trkpt lat="48.78776" lon="2.07475">
        <ele>113.64</ele>
        <time>2019-04-14T10:20:23Z</time>
      </trkpt>
      <trkpt lat="48.78783" lon="2.07507">
        <ele>113.01</ele>
        <time>2019-04-14T10:20:42Z</time>
      </trkpt>
      <trkpt lat="48.78793" lon="2.07533">
        <ele>112.75</ele>
        <time>2019-04-14T10:21:01Z</time>
      </trkpt>
      <trkpt lat="48.78801" lon="2.07567">
        <ele>111.06</ele>
        <time>2019-04-14T10:21:20Z</time>
      </trkpt>
      <trkpt lat="48.78806" lon="2.07603">
        <ele>110.13</ele>
        <time>2019-04-14T10:21:39Z</time>
      </trkpt>
      <trkpt lat="48.78809" lon="2.07633">
        <ele>109.64</ele>
        <time>2019-04-14T10:21:57Z</time>
      </trkpt>
      <trkpt lat="48.78811" lon="2.07661">
        <ele>108.56</ele>
        <time>2019-04-14T10:22:14Z</time>
      </trkpt>
      <trkpt lat="48.78806" lon="2.07694">
        <ele>107.52</ele>
        <time>2019-04-14T10:22:32Z</time>
      </trkpt>
      <trkpt lat="48.78808" lon="2.07731">
        <ele>106.58</ele>
        <time>2019-04-14T10:22:52Z</time>
      </trkpt>
      <trkpt lat="48.7881" lon="2.07772">
        <ele>105.26</ele>
        <time>2019-04-14T10:23:13Z</time>
      </trkpt>
      <trkpt lat="48.78814" lon="2.07805">
        <ele>103.73</ele>
        <time>2019-04-14T10:23:31Z</time>
      </trkpt>
      <trkpt lat="48.78817" lon="2.07842">
        <ele>102.46</ele>
        <time>2019-04-14T10:23:51Z</time>
      </trkpt>
      <trkpt lat="48.78821" lon="2.07883">
        <ele>101.75</ele>
        <time>2019-04-14T10:24:12Z</time>
      </trkpt>
      <trkpt lat="48.78827" lon="2.07914">
        <ele>100.74</ele>
        <time>2019-04-14T10:24:30Z</time>
      </trkpt>
      <trkpt lat="48.78833" lon="2.07945">
        <ele>101.09</ele>
        <time>2019-04-14T10:24:48Z</time>
      </trkpt>
      <trkpt lat="48.78837" lon="2.07979">
        <ele>101.45</ele>
        <time>2019-04-14T10:25:04Z</time>
      </trkpt>
      <trkpt lat="48.7884" lon="2.08009">
        <ele>99.68</ele>
        <time>2019-04-14T10:25:23Z</time>
      </trkpt>
      <trkpt lat="48.78838" lon="2.08029">
        <ele>99.37</ele>
        <time>2019-04-14T10:25:32Z</time>
      </trkpt>
      <trkpt lat="48.78842" lon="2.08054">
        <ele>98.82</ele>
        <time>2019-04-14T10:25:47Z</time>
      </trkpt>
      <trkpt lat="48.78842" lon="2.08085">
        <ele>98.5</ele>
        <time>2019-04-14T10:26:05Z</time>
      </trkpt>
      <trkpt lat="48.78842" lon="2.08118">
        <ele>97.76</ele>
        <time>2019-04-14T10:26:24Z</time>
      </trkpt>
      <trkpt lat="48.78841" lon="2.08159">
        <ele>97.01</ele>
        <time>2019-04-14T10:26:42Z</time>
      </trkpt>
      <trkpt lat="48.78835" lon="2.08187">
        <ele>96.79</ele>
        <time>2019-04-14T10:27:01Z</time>
      </trkpt>
      <trkpt lat="48.78819" lon="2.08195">
        <ele>95.81</ele>
        <time>2019-04-14T10:27:19Z</time>
      </trkpt>
      <trkpt lat="48.78805" lon="2.08202">
        <ele>95.31</ele>
        <time>2019-04-14T10:27:36Z</time>
      </trkpt>
      <trkpt lat="48.78802" lon="2.08212">
        <ele>95.66</ele>
        <time>2019-04-14T10:27:52Z</time>
      </trkpt>
      <trkpt lat="48.78798" lon="2.08212">
        <ele>95.88</ele>
        <time>2019-04-14T10:28:19Z</time>
      </trkpt>
      <trkpt lat="48.78795" lon="2.08206">
        <ele>95.76</ele>
        <time>2019-04-14T10:28:46Z</time>
      </trkpt>
      <trkpt lat="48.7879" lon="2.08205">
        <ele>122.78</ele>
        <time>2019-04-14T11:13:24Z</time>
      </trkpt>
      <trkpt lat="48.78789" lon="2.08205">
        <ele>123.59</ele>
        <time>2019-04-14T11:15:57Z</time>
      </trkpt>
      <trkpt lat="48.78785" lon="2.08208">
        <ele>123.63</ele>
        <time>2019-04-14T11:16:49Z</time>
      </trkpt>
      <trkpt lat="48.78778" lon="2.08215">
        <ele>123.48</ele>
        <time>2019-04-14T11:17:09Z</time>
      </trkpt>
      <trkpt lat="48.78774" lon="2.08218">
        <ele>122.69</ele>
        <time>2019-04-14T11:17:33Z</time>
      </trkpt>
      <trkpt lat="48.7877" lon="2.08216">
        <ele>123.5</ele>
        <time>2019-04-14T11:17:55Z</time>
      </trkpt>
      <trkpt lat="48.78765" lon="2.08217">
        <ele>123.37</ele>
        <time>2019-04-14T11:18:09Z</time>
      </trkpt>
      <trkpt lat="48.78756" lon="2.08219">
        <ele>122.81</ele>
        <time>2019-04-14T11:18:33Z</time>
      </trkpt>
      <trkpt lat="48.78746" lon="2.08219">
        <ele>122.38</ele>
        <time>2019-04-14T11:18:47Z</time>
      </trkpt>
      <trkpt lat="48.78735" lon="2.08219">
        <ele>123.36</ele>
        <time>2019-04-14T11:19:07Z</time>
      </trkpt>
      <trkpt lat="48.78721" lon="2.08218">
        <ele>123.5</ele>
        <time>2019-04-14T11:19:24Z</time>
      </trkpt>
      <trkpt lat="48.78701" lon="2.08225">
        <ele>123.32</ele>
        <time>2019-04-14T11:19:47Z</time>
      </trkpt>
      <trkpt lat="48.78689" lon="2.08232">
        <ele>123.17</ele>
        <time>2019-04-14T11:20:10Z</time>
      </trkpt>
      <trkpt lat="48.78676" lon="2.08238">
        <ele>122.78</ele>
        <time>2019-04-14T11:20:31Z</time>
      </trkpt>
      <trkpt lat="48.78664" lon="2.08251">
        <ele>123.35</ele>
        <time>2019-04-14T11:20:51Z</time>
      </trkpt>
      <trkpt lat="48.78652" lon="2.08268">
        <ele>123.18</ele>
        <time>2019-04-14T11:21:13Z</time>
      </trkpt>
      <trkpt lat="48.78637" lon="2.08283">
        <ele>122.37</ele>
        <time>2019-04-14T11:21:36Z</time>
      </trkpt>
      <trkpt lat="48.78622" lon="2.08287">
        <ele>121.86</ele>
        <time>2019-04-14T11:21:59Z</time>
      </trkpt>
      <trkpt lat="48.78606" lon="2.08289">
        <ele>121.75</ele>
        <time>2019-04-14T11:22:19Z</time>
      </trkpt>
      <trkpt lat="48.78591" lon="2.08294">
        <ele>122.25</ele>
        <time>2019-04-14T11:22:39Z</time>
      </trkpt>
      <trkpt lat="48.78577" lon="2.08298">
        <ele>122.4</ele>
        <time>2019-04-14T11:22:56Z</time>
      </trkpt>
      <trkpt lat="48.78561" lon="2.0831">
        <ele>122.59</ele>
        <time>2019-04-14T11:23:16Z</time>
      </trkpt>
      <trkpt lat="48.78543" lon="2.08327">
        <ele>122.27</ele>
        <time>2019-04-14T11:23:40Z</time>
      </trkpt>
      <trkpt lat="48.78527" lon="2.0833">
        <ele>122.11</ele>
        <time>2019-04-14T11:24:00Z</time>
      </trkpt>
      <trkpt lat="48.78505" lon="2.08342">
        <ele>121.57</ele>
        <time>2019-04-14T11:24:22Z</time>
      </trkpt>
      <trkpt lat="48.78486" lon="2.08349">
        <ele>121.43</ele>
        <time>2019-04-14T11:24:44Z</time>
      </trkpt>
      <trkpt lat="48.78469" lon="2.08363">
        <ele>121.25</ele>
        <time>2019-04-14T11:25:07Z</time>
      </trkpt>
      <trkpt lat="48.78449" lon="2.08372">
        <ele>121.12</ele>
        <time>2019-04-14T11:25:27Z</time>
      </trkpt>
      <trkpt lat="48.78434" lon="2.08384">
        <ele>121.18</ele>
        <time>2019-04-14T11:25:48Z</time>
      </trkpt>
      <trkpt lat="48.78423" lon="2.08405">
        <ele>120.52</ele>
        <time>2019-04-14T11:26:05Z</time>
      </trkpt>
      <trkpt lat="48.78417" lon="2.08429">
        <ele>120.02</ele>
        <time>2019-04-14T11:26:24Z</time>
      </trkpt>
      <trkpt lat="48.78408" lon="2.08452">
        <ele>119.81</ele>
        <time>2019-04-14T11:26:43Z</time>
      </trkpt>
      <trkpt lat="48.78397" lon="2.08474">
        <ele>119.19</ele>
        <time>2019-04-14T11:27:01Z</time>
      </trkpt>
      <trkpt lat="48.78386" lon="2.08495">
        <ele>119.62</ele>
        <time>2019-04-14T11:27:16Z</time>
      </trkpt>
      <trkpt lat="48.78368" lon="2.08498">
        <ele>119.67</ele>
        <time>2019-04-14T11:27:34Z</time>
      </trkpt>
      <trkpt lat="48.78365" lon="2.08496">
        <ele>119.63</ele>
        <time>2019-04-14T11:27:37Z</time>
      </trkpt>
      <trkpt lat="48.78355" lon="2.08493">
        <ele>119.66</ele>
        <time>2019-04-14T11:27:46Z</time>
      </trkpt>
      <trkpt lat="48.78347" lon="2.08484">
        <ele>119.25</ele>
        <time>2019-04-14T11:28:07Z</time>
      </trkpt>
      <trkpt lat="48.78345" lon="2.08482">
        <ele>118.95</ele>
        <time>2019-04-14T11:28:31Z</time>
      </trkpt>
      <trkpt lat="48.78342" lon="2.0848">
        <ele>118.22</ele>
        <time>2019-04-14T11:28:50Z</time>
      </trkpt>
      <trkpt lat="48.78338" lon="2.08479">
        <ele>117.74</ele>
        <time>2019-04-14T11:29:17Z</time>
      </trkpt>
      <trkpt lat="48.78335" lon="2.08481">
        <ele>117.86</ele>
        <time>2019-04-14T11:29:43Z</time>
      </trkpt>
      <trkpt lat="48.78331" lon="2.08479">
        <ele>117.92</ele>
        <time>2019-04-14T11:29:48Z</time>
      </trkpt>
      <trkpt lat="48.78322" lon="2.08478">
        <ele>118.48</ele>
        <time>2019-04-14T11:30:04Z</time>
      </trkpt>
      <trkpt lat="48.78321" lon="2.08471">
        <ele>118.37</ele>
        <time>2019-04-14T11:30:24Z</time>
      </trkpt>
      <trkpt lat="48.78321" lon="2.0847">
        <ele>118.36</ele>
        <time>2019-04-14T11:30:25Z</time>
      </trkpt>
      <trkpt lat="48.78319" lon="2.08464">
        <ele>118.49</ele>
        <time>2019-04-14T11:30:29Z</time>
      </trkpt>
      <trkpt lat="48.78314" lon="2.08457">
        <ele>118.16</ele>
        <time>2019-04-14T11:30:35Z</time>
      </trkpt>
      <trkpt lat="48.78307" lon="2.08443">
        <ele>118.7</ele>
        <time>2019-04-14T11:30:47Z</time>
      </trkpt>
      <trkpt lat="48.78294" lon="2.08423">
        <ele>118.15</ele>
        <time>2019-04-14T11:31:05Z</time>
      </trkpt>
      <trkpt lat="48.78283" lon="2.08405">
        <ele>118.26</ele>
        <time>2019-04-14T11:31:20Z</time>
      </trkpt>
      <trkpt lat="48.78273" lon="2.0839">
        <ele>117.6</ele>
        <time>2019-04-14T11:31:34Z</time>
      </trkpt>
      <trkpt lat="48.7826" lon="2.0838">
        <ele>117.78</ele>
        <time>2019-04-14T11:31:52Z</time>
      </trkpt>
      <trkpt lat="48.78246" lon="2.0839">
        <ele>118.03</ele>
        <time>2019-04-14T11:32:03Z</time>
      </trkpt>
      <trkpt lat="48.78227" lon="2.08399">
        <ele>117.79</ele>
        <time>2019-04-14T11:32:21Z</time>
      </trkpt>
      <trkpt lat="48.78222" lon="2.08397">
        <ele>117.69</ele>
        <time>2019-04-14T11:32:42Z</time>
      </trkpt>
      <trkpt lat="48.78212" lon="2.08404">
        <ele>118.87</ele>
        <time>2019-04-14T11:32:59Z</time>
      </trkpt>
      <trkpt lat="48.78195" lon="2.08407">
        <ele>121.7</ele>
        <time>2019-04-14T11:33:20Z</time>
      </trkpt>
      <trkpt lat="48.78171" lon="2.08408">
        <ele>124.04</ele>
        <time>2019-04-14T11:33:40Z</time>
      </trkpt>
      <trkpt lat="48.7815" lon="2.08407">
        <ele>126.61</ele>
        <time>2019-04-14T11:34:00Z</time>
      </trkpt>
      <trkpt lat="48.78138" lon="2.08425">
        <ele>124</ele>
        <time>2019-04-14T11:34:15Z</time>
      </trkpt>
      <trkpt lat="48.78135" lon="2.08428">
        <ele>123.32</ele>
        <time>2019-04-14T11:34:29Z</time>
      </trkpt>
      <trkpt lat="48.78121" lon="2.08454">
        <ele>121.01</ele>
        <time>2019-04-14T11:34:49Z</time>
      </trkpt>
      <trkpt lat="48.78116" lon="2.08481">
        <ele>118.98</ele>
        <time>2019-04-14T11:35:08Z</time>
      </trkpt>
      <trkpt lat="48.78112" lon="2.08514">
        <ele>117.69</ele>
        <time>2019-04-14T11:35:28Z</time>
      </trkpt>
      <trkpt lat="48.78106" lon="2.08549">
        <ele>118.49</ele>
        <time>2019-04-14T11:35:47Z</time>
      </trkpt>
      <trkpt lat="48.78093" lon="2.08567">
        <ele>117.42</ele>
        <time>2019-04-14T11:36:05Z</time>
      </trkpt>
      <trkpt lat="48.78074" lon="2.08595">
        <ele>117.16</ele>
        <time>2019-04-14T11:36:27Z</time>
      </trkpt>
      <trkpt lat="48.78059" lon="2.08634">
        <ele>116.43</ele>
        <time>2019-04-14T11:36:45Z</time>
      </trkpt>
      <trkpt lat="48.78047" lon="2.0866">
        <ele>115.93</ele>
        <time>2019-04-14T11:37:04Z</time>
      </trkpt>
      <trkpt lat="48.78037" lon="2.08683">
        <ele>115.68</ele>
        <time>2019-04-14T11:37:22Z</time>
      </trkpt>
      <trkpt lat="48.78025" lon="2.08711">
        <ele>115.69</ele>
        <time>2019-04-14T11:37:43Z</time>
      </trkpt>
      <trkpt lat="48.7802" lon="2.08744">
        <ele>116.58</ele>
        <time>2019-04-14T11:38:02Z</time>
      </trkpt>
      <trkpt lat="48.78019" lon="2.08771">
        <ele>117.46</ele>
        <time>2019-04-14T11:38:23Z</time>
      </trkpt>
      <trkpt lat="48.78015" lon="2.08798">
        <ele>117.07</ele>
        <time>2019-04-14T11:38:43Z</time>
      </trkpt>
      <trkpt lat="48.78013" lon="2.08811">
        <ele>115.5</ele>
        <time>2019-04-14T11:38:55Z</time>
      </trkpt>
      <trkpt lat="48.78008" lon="2.08842">
        <ele>114.56</ele>
        <time>2019-04-14T11:39:15Z</time>
      </trkpt>
      <trkpt lat="48.78012" lon="2.08863">
        <ele>114.07</ele>
        <time>2019-04-14T11:39:37Z</time>
      </trkpt>
      <trkpt lat="48.7801" lon="2.08872">
        <ele>114.5</ele>
        <time>2019-04-14T11:40:07Z</time>
      </trkpt>
      <trkpt lat="48.78003" lon="2.08868">
        <ele>113.78</ele>
        <time>2019-04-14T11:40:36Z</time>
      </trkpt>
      <trkpt lat="48.78008" lon="2.0887">
        <ele>114.09</ele>
        <time>2019-04-14T11:41:02Z</time>
      </trkpt>
      <trkpt lat="48.7801" lon="2.08876">
        <ele>114.19</ele>
        <time>2019-04-14T11:41:35Z</time>
      </trkpt>
      <trkpt lat="48.78009" lon="2.08881">
        <ele>114.08</ele>
        <time>2019-04-14T11:41:59Z</time>
      </trkpt>
      <trkpt lat="48.7801" lon="2.08892">
        <ele>114.05</ele>
        <time>2019-04-14T11:42:22Z</time>
      </trkpt>
      <trkpt lat="48.78011" lon="2.08918">
        <ele>112.85</ele>
        <time>2019-04-14T11:42:40Z</time>
      </trkpt>
      <trkpt lat="48.78011" lon="2.08936">
        <ele>112.95</ele>
        <time>2019-04-14T11:42:59Z</time>
      </trkpt>
      <trkpt lat="48.78008" lon="2.08947">
        <ele>112.66</ele>
        <time>2019-04-14T11:43:22Z</time>
      </trkpt>
      <trkpt lat="48.78004" lon="2.08951">
        <ele>112.88</ele>
        <time>2019-04-14T11:43:48Z</time>
      </trkpt>
      <trkpt lat="48.78008" lon="2.08956">
        <ele>112.97</ele>
        <time>2019-04-14T11:44:21Z</time>
      </trkpt>
      <trkpt lat="48.78006" lon="2.08952">
        <ele>112.87</ele>
        <time>2019-04-14T11:44:57Z</time>
      </trkpt>
      <trkpt lat="48.78001" lon="2.08958">
        <ele>112.44</ele>
        <time>2019-04-14T11:45:22Z</time>
      </trkpt>
      <trkpt lat="48.77992" lon="2.08981">
        <ele>113.22</ele>
        <time>2019-04-14T11:45:42Z</time>
      </trkpt>
      <trkpt lat="48.7798" lon="2.09005">
        <ele>112.59</ele>
        <time>2019-04-14T11:46:03Z</time>
      </trkpt>
      <trkpt lat="48.7797" lon="2.09039">
        <ele>112.71</ele>
        <time>2019-04-14T11:46:25Z</time>
      </trkpt>
      <trkpt lat="48.77964" lon="2.09052">
        <ele>113.13</ele>
        <time>2019-04-14T11:46:34Z</time>
      </trkpt>
      <trkpt lat="48.77956" lon="2.0908">
        <ele>112.88</ele>
        <time>2019-04-14T11:46:51Z</time>
      </trkpt>
      <trkpt lat="48.77944" lon="2.09101">
        <ele>112.93</ele>
        <time>2019-04-14T11:47:10Z</time>
      </trkpt>
      <trkpt lat="48.7793" lon="2.0913">
        <ele>111.28</ele>
        <time>2019-04-14T11:47:32Z</time>
      </trkpt>
      <trkpt lat="48.77919" lon="2.09145">
        <ele>112.12</ele>
        <time>2019-04-14T11:47:50Z</time>
      </trkpt>
      <trkpt lat="48.77902" lon="2.09166">
        <ele>111.97</ele>
        <time>2019-04-14T11:48:11Z</time>
      </trkpt>
      <trkpt lat="48.77886" lon="2.09196">
        <ele>112.72</ele>
        <time>2019-04-14T11:48:34Z</time>
      </trkpt>
      <trkpt lat="48.7787" lon="2.09207">
        <ele>112.26</ele>
        <time>2019-04-14T11:48:55Z</time>
      </trkpt>
      <trkpt lat="48.77855" lon="2.0922">
        <ele>111.94</ele>
        <time>2019-04-14T11:49:14Z</time>
      </trkpt>
      <trkpt lat="48.77856" lon="2.09247">
        <ele>112.68</ele>
        <time>2019-04-14T11:49:33Z</time>
      </trkpt>
      <trkpt lat="48.77872" lon="2.09277">
        <ele>112.65</ele>
        <time>2019-04-14T11:49:55Z</time>
      </trkpt>
      <trkpt lat="48.77893" lon="2.0929">
        <ele>112.73</ele>
        <time>2019-04-14T11:50:16Z</time>
      </trkpt>
      <trkpt lat="48.77909" lon="2.09314">
        <ele>112.65</ele>
        <time>2019-04-14T11:50:40Z</time>
      </trkpt>
      <trkpt lat="48.77917" lon="2.09337">
        <ele>112.51</ele>
        <time>2019-04-14T11:50:59Z</time>
      </trkpt>
      <trkpt lat="48.7792" lon="2.09356">
        <ele>112.76</ele>
        <time>2019-04-14T11:51:16Z</time>
      </trkpt>
      <trkpt lat="48.77922" lon="2.09388">
        <ele>112.57</ele>
        <time>2019-04-14T11:51:35Z</time>
      </trkpt>
      <trkpt lat="48.77916" lon="2.09415">
        <ele>110.93</ele>
        <time>2019-04-14T11:51:54Z</time>
      </trkpt>
      <trkpt lat="48.7792" lon="2.09428">
        <ele>108.22</ele>
        <time>2019-04-14T11:52:08Z</time>
      </trkpt>
      <trkpt lat="48.77928" lon="2.09455">
        <ele>105.46</ele>
        <time>2019-04-14T11:52:30Z</time>
      </trkpt>
      <trkpt lat="48.77932" lon="2.0949">
        <ele>102.28</ele>
        <time>2019-04-14T11:52:48Z</time>
      </trkpt>
      <trkpt lat="48.77947" lon="2.09517">
        <ele>101.36</ele>
        <time>2019-04-14T11:53:08Z</time>
      </trkpt>
      <trkpt lat="48.7795" lon="2.09534">
        <ele>100.55</ele>
        <time>2019-04-14T11:53:29Z</time>
      </trkpt>
      <trkpt lat="48.77951" lon="2.09548">
        <ele>100.61</ele>
        <time>2019-04-14T11:53:52Z</time>
      </trkpt>
      <trkpt lat="48.77953" lon="2.09555">
        <ele>100.44</ele>
        <time>2019-04-14T11:54:08Z</time>
      </trkpt>
      <trkpt lat="48.77962" lon="2.09563">
        <ele>99.1</ele>
        <time>2019-04-14T11:54:30Z</time>
      </trkpt>
      <trkpt lat="48.77969" lon="2.09561">
        <ele>99.48</ele>
        <time>2019-04-14T11:54:51Z</time>
      </trkpt>
      <trkpt lat="48.77971" lon="2.09566">
        <ele>98.9</ele>
        <time>2019-04-14T11:55:05Z</time>
      </trkpt>
      <trkpt lat="48.77982" lon="2.09571">
        <ele>99.23</ele>
        <time>2019-04-14T11:55:24Z</time>
      </trkpt>
      <trkpt lat="48.77993" lon="2.0957">
        <ele>100.47</ele>
        <time>2019-04-14T11:55:44Z</time>
      </trkpt>
      <trkpt lat="48.78011" lon="2.09561">
        <ele>100.04</ele>
        <time>2019-04-14T11:56:04Z</time>
      </trkpt>
      <trkpt lat="48.78033" lon="2.0956">
        <ele>101.08</ele>
        <time>2019-04-14T11:56:22Z</time>
      </trkpt>
      <trkpt lat="48.78051" lon="2.0957">
        <ele>101.56</ele>
        <time>2019-04-14T11:56:40Z</time>
      </trkpt>
      <trkpt lat="48.78044" lon="2.09571">
        <ele>101.26</ele>
        <time>2019-04-14T11:56:53Z</time>
      </trkpt>
      <trkpt lat="48.78034" lon="2.09583">
        <ele>101.18</ele>
        <time>2019-04-14T11:57:11Z</time>
      </trkpt>
      <trkpt lat="48.78035" lon="2.096">
        <ele>98.1</ele>
        <time>2019-04-14T11:57:33Z</time>
      </trkpt>
      <trkpt lat="48.78032" lon="2.09606">
        <ele>97.51</ele>
        <time>2019-04-14T11:57:46Z</time>
      </trkpt>
      <trkpt lat="48.78049" lon="2.09659">
        <ele>96.07</ele>
        <time>2019-04-14T11:58:06Z</time>
      </trkpt>
      <trkpt lat="48.78059" lon="2.09687">
        <ele>98.29</ele>
        <time>2019-04-14T11:58:27Z</time>
      </trkpt>
      <trkpt lat="48.78068" lon="2.09716">
        <ele>98.31</ele>
        <time>2019-04-14T11:58:45Z</time>
      </trkpt>
      <trkpt lat="48.78073" lon="2.09757">
        <ele>98.81</ele>
        <time>2019-04-14T11:59:07Z</time>
      </trkpt>
      <trkpt lat="48.78076" lon="2.09792">
        <ele>98.02</ele>
        <time>2019-04-14T11:59:27Z</time>
      </trkpt>
      <trkpt lat="48.78074" lon="2.09832">
        <ele>97.4</ele>
        <time>2019-04-14T11:59:48Z</time>
      </trkpt>
      <trkpt lat="48.78071" lon="2.09866">
        <ele>97.72</ele>
        <time>2019-04-14T12:00:08Z</time>
      </trkpt>
      <trkpt lat="48.78062" lon="2.09891">
        <ele>95.91</ele>
        <time>2019-04-14T12:00:26Z</time>
      </trkpt>
      <trkpt lat="48.78048" lon="2.09912">
        <ele>93.49</ele>
        <time>2019-04-14T12:00:47Z</time>
      </trkpt>
      <trkpt lat="48.78031" lon="2.09924">
        <ele>91.56</ele>
        <time>2019-04-14T12:01:01Z</time>
      </trkpt>
      <trkpt lat="48.78011" lon="2.09933">
        <ele>91.16</ele>
        <time>2019-04-14T12:01:23Z</time>
      </trkpt>
      <trkpt lat="48.78003" lon="2.09934">
        <ele>90.3</ele>
        <time>2019-04-14T12:01:42Z</time>
      </trkpt>
      <trkpt lat="48.77997" lon="2.09932">
        <ele>90.06</ele>
        <time>2019-04-14T12:02:03Z</time>
      </trkpt>
      <trkpt lat="48.77992" lon="2.09922">
        <ele>89.75</ele>
        <time>2019-04-14T12:02:28Z</time>
      </trkpt>
      <trkpt lat="48.77974" lon="2.0992">
        <ele>88.04</ele>
        <time>2019-04-14T12:02:50Z</time>
      </trkpt>
      <trkpt lat="48.77956" lon="2.09916">
        <ele>87.56</ele>
        <time>2019-04-14T12:03:10Z</time>
      </trkpt>
      <trkpt lat="48.77936" lon="2.09912">
        <ele>85.93</ele>
        <time>2019-04-14T12:03:33Z</time>
      </trkpt>
      <trkpt lat="48.77916" lon="2.09902">
        <ele>85.85</ele>
        <time>2019-04-14T12:03:53Z</time>
      </trkpt>
      <trkpt lat="48.77904" lon="2.09907">
        <ele>85.46</ele>
        <time>2019-04-14T12:04:10Z</time>
      </trkpt>
      <trkpt lat="48.77888" lon="2.09919">
        <ele>84.03</ele>
        <time>2019-04-14T12:04:30Z</time>
      </trkpt>
      <trkpt lat="48.77877" lon="2.0993">
        <ele>84.06</ele>
        <time>2019-04-14T12:04:50Z</time>
      </trkpt>
      <trkpt lat="48.77877" lon="2.09931">
        <ele>83.95</ele>
        <time>2019-04-14T12:04:52Z</time>
      </trkpt>
      <trkpt lat="48.77874" lon="2.0993">
        <ele>83.91</ele>
        <time>2019-04-14T12:04:57Z</time>
      </trkpt>
      <trkpt lat="48.77871" lon="2.09947">
        <ele>82.99</ele>
        <time>2019-04-14T12:05:17Z</time>
      </trkpt>
      <trkpt lat="48.77865" lon="2.09975">
        <ele>81.7</ele>
        <time>2019-04-14T12:05:36Z</time>
      </trkpt>
      <trkpt lat="48.77863" lon="2.09997">
        <ele>80.65</ele>
        <time>2019-04-14T12:05:56Z</time>
      </trkpt>
      <trkpt lat="48.77856" lon="2.10024">
        <ele>79.63</ele>
        <time>2019-04-14T12:06:14Z</time>
      </trkpt>
      <trkpt lat="48.77853" lon="2.10039">
        <ele>77.86</ele>
        <time>2019-04-14T12:06:39Z</time>
      </trkpt>
      <trkpt lat="48.77828" lon="2.10039">
        <ele>75.97</ele>
        <time>2019-04-14T12:07:00Z</time>
      </trkpt>
      <trkpt lat="48.77809" lon="2.10031">
        <ele>75.64</ele>
        <time>2019-04-14T12:07:19Z</time>
      </trkpt>
      <trkpt lat="48.77788" lon="2.10023">
        <ele>73.94</ele>
        <time>2019-04-14T12:07:43Z</time>
      </trkpt>
      <trkpt lat="48.77772" lon="2.10022">
        <ele>73.01</ele>
        <time>2019-04-14T12:07:57Z</time>
      </trkpt>
      <trkpt lat="48.77771" lon="2.10023">
        <ele>72.99</ele>
        <time>2019-04-14T12:08:00Z</time>
      </trkpt>
      <trkpt lat="48.77766" lon="2.10023">
        <ele>71.98</ele>
        <time>2019-04-14T12:08:05Z</time>
      </trkpt>
      <trkpt lat="48.77754" lon="2.10022">
        <ele>71.14</ele>
        <time>2019-04-14T12:08:18Z</time>
      </trkpt>
      <trkpt lat="48.7774" lon="2.10024">
        <ele>69.14</ele>
        <time>2019-04-14T12:08:33Z</time>
      </trkpt>
      <trkpt lat="48.77725" lon="2.10027">
        <ele>68.89</ele>
        <time>2019-04-14T12:08:49Z</time>
      </trkpt>
      <trkpt lat="48.77713" lon="2.1004">
        <ele>68.31</ele>
        <time>2019-04-14T12:09:05Z</time>
      </trkpt>
      <trkpt lat="48.77706" lon="2.10051">
        <ele>67.38</ele>
        <time>2019-04-14T12:09:18Z</time>
      </trkpt>
      <trkpt lat="48.77703" lon="2.10082">
        <ele>66.06</ele>
        <time>2019-04-14T12:09:36Z</time>
      </trkpt>
      <trkpt lat="48.77705" lon="2.101">
        <ele>64.94</ele>
        <time>2019-04-14T12:09:53Z</time>
      </trkpt>
      <trkpt lat="48.77707" lon="2.10127">
        <ele>61.8</ele>
        <time>2019-04-14T12:10:10Z</time>
      </trkpt>
      <trkpt lat="48.77706" lon="2.1013">
        <ele>62.14</ele>
        <time>2019-04-14T12:10:13Z</time>
      </trkpt>
      <trkpt lat="48.77707" lon="2.10164">
        <ele>60.4</ele>
        <time>2019-04-14T12:10:33Z</time>
      </trkpt>
      <trkpt lat="48.7771" lon="2.10194">
        <ele>58.67</ele>
        <time>2019-04-14T12:10:51Z</time>
      </trkpt>
      <trkpt lat="48.77709" lon="2.10223">
        <ele>57.14</ele>
        <time>2019-04-14T12:11:07Z</time>
      </trkpt>
      <trkpt lat="48.77675" lon="2.10263">
        <ele>55.41</ele>
        <time>2019-04-14T12:11:27Z</time>
      </trkpt>
      <trkpt lat="48.77682" lon="2.10297">
        <ele>54.1</ele>
        <time>2019-04-14T12:11:44Z</time>
      </trkpt>
      <trkpt lat="48.77653" lon="2.10328">
        <ele>53.88</ele>
        <time>2019-04-14T12:12:04Z</time>
      </trkpt>
      <trkpt lat="48.77639" lon="2.10367">
        <ele>54.1</ele>
        <time>2019-04-14T12:12:23Z</time>
      </trkpt>
      <trkpt lat="48.77637" lon="2.104">
        <ele>54.33</ele>
        <time>2019-04-14T12:12:44Z</time>
      </trkpt>
      <trkpt lat="48.77633" lon="2.1043">
        <ele>54.7</ele>
        <time>2019-04-14T12:13:06Z</time>
      </trkpt>
      <trkpt lat="48.7763" lon="2.10469">
        <ele>55.33</ele>
        <time>2019-04-14T12:13:26Z</time>
      </trkpt>
      <trkpt lat="48.77624" lon="2.10511">
        <ele>54.99</ele>
        <time>2019-04-14T12:13:47Z</time>
      </trkpt>
      <trkpt lat="48.77614" lon="2.10544">
        <ele>54.84</ele>
        <time>2019-04-14T12:14:07Z</time>
      </trkpt>
      <trkpt lat="48.77607" lon="2.10574">
        <ele>54.07</ele>
        <time>2019-04-14T12:14:26Z</time>
      </trkpt>
      <trkpt lat="48.77599" lon="2.10609">
        <ele>54.43</ele>
        <time>2019-04-14T12:14:48Z</time>
      </trkpt>
      <trkpt lat="48.77588" lon="2.10635">
        <ele>53.31</ele>
        <time>2019-04-14T12:15:09Z</time>
      </trkpt>
      <trkpt lat="48.77571" lon="2.10667">
        <ele>54.02</ele>
        <time>2019-04-14T12:15:33Z</time>
      </trkpt>
      <trkpt lat="48.77573" lon="2.10693">
        <ele>54.84</ele>
        <time>2019-04-14T12:15:53Z</time>
      </trkpt>
      <trkpt lat="48.77581" lon="2.10718">
        <ele>54.52</ele>
        <time>2019-04-14T12:16:11Z</time>
      </trkpt>
      <trkpt lat="48.7759" lon="2.10745">
        <ele>53.98</ele>
        <time>2019-04-14T12:16:31Z</time>
      </trkpt>
      <trkpt lat="48.77591" lon="2.10749">
        <ele>52.94</ele>
        <time>2019-04-14T12:16:34Z</time>
      </trkpt>
      <trkpt lat="48.77591" lon="2.10757">
        <ele>53.93</ele>
        <time>2019-04-14T12:16:36Z</time>
      </trkpt>
      <trkpt lat="48.77595" lon="2.10789">
        <ele>52.65</ele>
        <time>2019-04-14T12:16:53Z</time>
      </trkpt>
      <trkpt lat="48.77594" lon="2.10803">
        <ele>53.2</ele>
        <time>2019-04-14T12:17:03Z</time>
      </trkpt>
      <trkpt lat="48.77593" lon="2.10807">
        <ele>53.36</ele>
        <time>2019-04-14T12:17:06Z</time>
      </trkpt>
      <trkpt lat="48.77594" lon="2.10812">
        <ele>52.8</ele>
        <time>2019-04-14T12:17:24Z</time>
      </trkpt>
      <trkpt lat="48.77577" lon="2.10808">
        <ele>53.74</ele>
        <time>2019-04-14T12:17:53Z</time>
      </trkpt>
      <trkpt lat="48.77579" lon="2.10808">
        <ele>54.19</ele>
        <time>2019-04-14T12:18:23Z</time>
      </trkpt>
      <trkpt lat="48.77579" lon="2.10808">
        <ele>53.74</ele>
        <time>2019-04-14T12:18:26Z</time>
      </trkpt>
      <trkpt lat="48.77585" lon="2.10809">
        <ele>54.25</ele>
        <time>2019-04-14T12:18:53Z</time>
      </trkpt>
      <trkpt lat="48.77579" lon="2.10809">
        <ele>54.56</ele>
        <time>2019-04-14T12:19:19Z</time>
      </trkpt>
      <trkpt lat="48.77583" lon="2.1081">
        <ele>54.62</ele>
        <time>2019-04-14T12:19:43Z</time>
      </trkpt>
      <trkpt lat="48.77581" lon="2.1081">
        <ele>53.72</ele>
        <time>2019-04-14T12:20:06Z</time>
      </trkpt>
      <trkpt lat="48.77588" lon="2.10817">
        <ele>53.26</ele>
        <time>2019-04-14T12:20:23Z</time>
      </trkpt>
      <trkpt lat="48.77595" lon="2.10828">
        <ele>53.45</ele>
        <time>2019-04-14T12:20:39Z</time>
      </trkpt>
      <trkpt lat="48.77611" lon="2.10856">
        <ele>53.73</ele>
        <time>2019-04-14T12:21:02Z</time>
      </trkpt>
      <trkpt lat="48.77626" lon="2.10882">
        <ele>54.08</ele>
        <time>2019-04-14T12:21:20Z</time>
      </trkpt>
      <trkpt lat="48.77637" lon="2.10906">
        <ele>53.72</ele>
        <time>2019-04-14T12:21:39Z</time>
      </trkpt>
      <trkpt lat="48.77652" lon="2.10934">
        <ele>54.45</ele>
        <time>2019-04-14T12:21:58Z</time>
      </trkpt>
      <trkpt lat="48.7766" lon="2.10958">
        <ele>54.13</ele>
        <time>2019-04-14T12:22:13Z</time>
      </trkpt>
      <trkpt lat="48.77677" lon="2.10983">
        <ele>53.21</ele>
        <time>2019-04-14T12:22:31Z</time>
      </trkpt>
      <trkpt lat="48.7769" lon="2.11013">
        <ele>52.76</ele>
        <time>2019-04-14T12:22:51Z</time>
      </trkpt>
      <trkpt lat="48.77705" lon="2.1105">
        <ele>53.24</ele>
        <time>2019-04-14T12:23:11Z</time>
      </trkpt>
      <trkpt lat="48.77714" lon="2.11076">
        <ele>52.26</ele>
        <time>2019-04-14T12:23:29Z</time>
      </trkpt>
      <trkpt lat="48.77724" lon="2.11116">
        <ele>51.44</ele>
        <time>2019-04-14T12:23:52Z</time>
      </trkpt>
      <trkpt lat="48.77733" lon="2.11142">
        <ele>52.45</ele>
        <time>2019-04-14T12:24:12Z</time>
      </trkpt>
      <trkpt lat="48.77733" lon="2.11154">
        <ele>52.26</ele>
        <time>2019-04-14T12:24:20Z</time>
      </trkpt>
      <trkpt lat="48.7774" lon="2.11187">
        <ele>51.32</ele>
        <time>2019-04-14T12:24:40Z</time>
      </trkpt>
      <trkpt lat="48.77747" lon="2.11221">
        <ele>51.85</ele>
        <time>2019-04-14T12:25:03Z</time>
      </trkpt>
      <trkpt lat="48.77741" lon="2.11266">
        <ele>50.25</ele>
        <time>2019-04-14T12:25:23Z</time>
      </trkpt>
      <trkpt lat="48.77738" lon="2.11298">
        <ele>49.29</ele>
        <time>2019-04-14T12:25:42Z</time>
      </trkpt>
      <trkpt lat="48.77736" lon="2.11336">
        <ele>49.7</ele>
        <time>2019-04-14T12:26:03Z</time>
      </trkpt>
      <trkpt lat="48.77736" lon="2.11376">
        <ele>48.43</ele>
        <time>2019-04-14T12:26:25Z</time>
      </trkpt>
      <trkpt lat="48.77727" lon="2.11407">
        <ele>48.38</ele>
        <time>2019-04-14T12:26:45Z</time>
      </trkpt>
      <trkpt lat="48.7772" lon="2.11435">
        <ele>47.68</ele>
        <time>2019-04-14T12:27:05Z</time>
      </trkpt>
      <trkpt lat="48.77716" lon="2.11465">
        <ele>47.91</ele>
        <time>2019-04-14T12:27:18Z</time>
      </trkpt>
      <trkpt lat="48.77721" lon="2.11486">
        <ele>47.25</ele>
        <time>2019-04-14T12:27:33Z</time>
      </trkpt>
      <trkpt lat="48.77722" lon="2.11511">
        <ele>47.51</ele>
        <time>2019-04-14T12:27:47Z</time>
      </trkpt>
      <trkpt lat="48.77728" lon="2.11528">
        <ele>48.09</ele>
        <time>2019-04-14T12:27:59Z</time>
      </trkpt>
      <trkpt lat="48.77729" lon="2.11533">
        <ele>48.9</ele>
        <time>2019-04-14T12:28:02Z</time>
      </trkpt>
      <trkpt lat="48.77729" lon="2.11538">
        <ele>47.71</ele>
        <time>2019-04-14T12:28:04Z</time>
      </trkpt>
      <trkpt lat="48.77733" lon="2.11577">
        <ele>46.93</ele>
        <time>2019-04-14T12:28:23Z</time>
      </trkpt>
      <trkpt lat="48.77743" lon="2.11597">
        <ele>46.49</ele>
        <time>2019-04-14T12:28:39Z</time>
      </trkpt>
      <trkpt lat="48.77753" lon="2.1163">
        <ele>47.32</ele>
        <time>2019-04-14T12:29:02Z</time>
      </trkpt>
      <trkpt lat="48.77756" lon="2.11654">
        <ele>47.17</ele>
        <time>2019-04-14T12:29:18Z</time>
      </trkpt>
      <trkpt lat="48.7776" lon="2.11685">
        <ele>48.06</ele>
        <time>2019-04-14T12:29:38Z</time>
      </trkpt>
      <trkpt lat="48.77766" lon="2.11721">
        <ele>47.56</ele>
        <time>2019-04-14T12:29:59Z</time>
      </trkpt>
      <trkpt lat="48.77774" lon="2.11744">
        <ele>47.34</ele>
        <time>2019-04-14T12:30:18Z</time>
      </trkpt>
      <trkpt lat="48.77775" lon="2.11754">
        <ele>47.64</ele>
        <time>2019-04-14T12:30:31Z</time>
      </trkpt>
      <trkpt lat="48.77769" lon="2.1176">
        <ele>47.49</ele>
        <time>2019-04-14T12:30:46Z</time>
      </trkpt>
      <trkpt lat="48.77762" lon="2.1176">
        <ele>47.9</ele>
        <time>2019-04-14T12:31:08Z</time>
      </trkpt>
      <trkpt lat="48.77758" lon="2.11761">
        <ele>47.98</ele>
        <time>2019-04-14T12:31:37Z</time>
      </trkpt>
      <trkpt lat="48.77756" lon="2.1176">
        <ele>48.26</ele>
        <time>2019-04-14T12:32:10Z</time>
      </trkpt>
      <trkpt lat="48.77751" lon="2.1176">
        <ele>48.28</ele>
        <time>2019-04-14T12:32:33Z</time>
      </trkpt>
      <trkpt lat="48.77752" lon="2.1176">
        <ele>49.03</ele>
        <time>2019-04-14T12:32:51Z</time>
      </trkpt>
      <trkpt lat="48.77749" lon="2.11767">
        <ele>48.92</ele>
        <time>2019-04-14T12:33:14Z</time>
      </trkpt>
      <trkpt lat="48.77751" lon="2.11765">
        <ele>49.7</ele>
        <time>2019-04-14T12:33:42Z</time>
      </trkpt>
      <trkpt lat="48.77754" lon="2.11761">
        <ele>50.23</ele>
        <time>2019-04-14T12:34:04Z</time>
      </trkpt>
      <trkpt lat="48.77753" lon="2.11764">
        <ele>51.35</ele>
        <time>2019-04-14T12:34:29Z</time>
      </trkpt>
      <trkpt lat="48.77753" lon="2.11763">
        <ele>51.71</ele>
        <time>2019-04-14T12:34:59Z</time>
      </trkpt>
      <trkpt lat="48.77753" lon="2.11764">
        <ele>51.66</ele>
        <time>2019-04-14T12:35:32Z</time>
      </trkpt>
      <trkpt lat="48.77758" lon="2.11771">
        <ele>52.8</ele>
        <time>2019-04-14T12:36:00Z</time>
      </trkpt>
      <trkpt lat="48.77768" lon="2.11794">
        <ele>52.32</ele>
        <time>2019-04-14T12:36:21Z</time>
      </trkpt>
      <trkpt lat="48.77775" lon="2.11822">
        <ele>54.11</ele>
        <time>2019-04-14T12:36:39Z</time>
      </trkpt>
      <trkpt lat="48.77777" lon="2.11852">
        <ele>53.54</ele>
        <time>2019-04-14T12:36:58Z</time>
      </trkpt>
      <trkpt lat="48.77779" lon="2.11882">
        <ele>54.33</ele>
        <time>2019-04-14T12:37:16Z</time>
      </trkpt>
      <trkpt lat="48.77786" lon="2.11915">
        <ele>54.52</ele>
        <time>2019-04-14T12:37:35Z</time>
      </trkpt>
      <trkpt lat="48.77794" lon="2.11925">
        <ele>58.21</ele>
        <time>2019-04-14T12:37:51Z</time>
      </trkpt>
      <trkpt lat="48.77795" lon="2.11924">
        <ele>58.5</ele>
        <time>2019-04-14T12:37:52Z</time>
      </trkpt>
      <trkpt lat="48.77807" lon="2.11934">
        <ele>61.52</ele>
        <time>2019-04-14T12:38:10Z</time>
      </trkpt>
      <trkpt lat="48.77815" lon="2.11946">
        <ele>64.69</ele>
        <time>2019-04-14T12:38:23Z</time>
      </trkpt>
      <trkpt lat="48.77827" lon="2.11952">
        <ele>67.81</ele>
        <time>2019-04-14T12:38:39Z</time>
      </trkpt>
      <trkpt lat="48.77828" lon="2.11953">
        <ele>68.16</ele>
        <time>2019-04-14T12:38:41Z</time>
      </trkpt>
      <trkpt lat="48.77833" lon="2.11958">
        <ele>69.92</ele>
        <time>2019-04-14T12:38:52Z</time>
      </trkpt>
      <trkpt lat="48.77842" lon="2.11974">
        <ele>72.83</ele>
        <time>2019-04-14T12:39:12Z</time>
      </trkpt>
      <trkpt lat="48.77846" lon="2.11993">
        <ele>76.12</ele>
        <time>2019-04-14T12:39:29Z</time>
      </trkpt>
      <trkpt lat="48.77854" lon="2.12006">
        <ele>79.3</ele>
        <time>2019-04-14T12:39:48Z</time>
      </trkpt>
      <trkpt lat="48.77862" lon="2.12018">
        <ele>82.37</ele>
        <time>2019-04-14T12:40:05Z</time>
      </trkpt>
      <trkpt lat="48.77871" lon="2.1204">
        <ele>85.39</ele>
        <time>2019-04-14T12:40:28Z</time>
      </trkpt>
      <trkpt lat="48.77876" lon="2.12056">
        <ele>87.36</ele>
        <time>2019-04-14T12:40:50Z</time>
      </trkpt>
      <trkpt lat="48.77881" lon="2.12075">
        <ele>89.85</ele>
        <time>2019-04-14T12:41:07Z</time>
      </trkpt>
      <trkpt lat="48.77888" lon="2.12089">
        <ele>92.51</ele>
        <time>2019-04-14T12:41:25Z</time>
      </trkpt>
      <trkpt lat="48.7789" lon="2.12101">
        <ele>95.55</ele>
        <time>2019-04-14T12:41:44Z</time>
      </trkpt>
      <trkpt lat="48.77895" lon="2.12114">
        <ele>97.21</ele>
        <time>2019-04-14T12:42:03Z</time>
      </trkpt>
      <trkpt lat="48.77895" lon="2.12135">
        <ele>97.96</ele>
        <time>2019-04-14T12:42:24Z</time>
      </trkpt>
      <trkpt lat="48.77895" lon="2.12141">
        <ele>98.51</ele>
        <time>2019-04-14T12:42:35Z</time>
      </trkpt>
      <trkpt lat="48.77896" lon="2.12149">
        <ele>99.53</ele>
        <time>2019-04-14T12:43:01Z</time>
      </trkpt>
      <trkpt lat="48.77903" lon="2.12162">
        <ele>101.64</ele>
        <time>2019-04-14T12:43:18Z</time>
      </trkpt>
      <trkpt lat="48.7791" lon="2.12179">
        <ele>102.85</ele>
        <time>2019-04-14T12:43:37Z</time>
      </trkpt>
      <trkpt lat="48.7792" lon="2.12184">
        <ele>102.8</ele>
        <time>2019-04-14T12:43:56Z</time>
      </trkpt>
      <trkpt lat="48.77931" lon="2.12195">
        <ele>103.87</ele>
        <time>2019-04-14T12:44:16Z</time>
      </trkpt>
      <trkpt lat="48.77941" lon="2.12201">
        <ele>105.45</ele>
        <time>2019-04-14T12:44:27Z</time>
      </trkpt>
      <trkpt lat="48.77961" lon="2.12222">
        <ele>104.96</ele>
        <time>2019-04-14T12:44:49Z</time>
      </trkpt>
      <trkpt lat="48.77986" lon="2.12249">
        <ele>105.49</ele>
        <time>2019-04-14T12:45:08Z</time>
      </trkpt>
      <trkpt lat="48.78" lon="2.12275">
        <ele>104.85</ele>
        <time>2019-04-14T12:45:28Z</time>
      </trkpt>
      <trkpt lat="48.78016" lon="2.12305">
        <ele>104.54</ele>
        <time>2019-04-14T12:45:48Z</time>
      </trkpt>
      <trkpt lat="48.78017" lon="2.12337">
        <ele>103.55</ele>
        <time>2019-04-14T12:46:08Z</time>
      </trkpt>
      <trkpt lat="48.78017" lon="2.12367">
        <ele>105.64</ele>
        <time>2019-04-14T12:46:27Z</time>
      </trkpt>
      <trkpt lat="48.78015" lon="2.12405">
        <ele>106.59</ele>
        <time>2019-04-14T12:46:50Z</time>
      </trkpt>
      <trkpt lat="48.78017" lon="2.12448">
        <ele>108.16</ele>
        <time>2019-04-14T12:47:15Z</time>
      </trkpt>
      <trkpt lat="48.78021" lon="2.12466">
        <ele>108.58</ele>
        <time>2019-04-14T12:47:30Z</time>
      </trkpt>
      <trkpt lat="48.7802" lon="2.1247">
        <ele>108.97</ele>
        <time>2019-04-14T12:47:34Z</time>
      </trkpt>
      <trkpt lat="48.78019" lon="2.12471">
        <ele>109.18</ele>
        <time>2019-04-14T12:47:53Z</time>
      </trkpt>
      <trkpt lat="48.78006" lon="2.12475">
        <ele>108.88</ele>
        <time>2019-04-14T12:48:07Z</time>
      </trkpt>
      <trkpt lat="48.78012" lon="2.12463">
        <ele>109.14</ele>
        <time>2019-04-14T12:48:25Z</time>
      </trkpt>
      <trkpt lat="48.78014" lon="2.12461">
        <ele>108.85</ele>
        <time>2019-04-14T12:48:28Z</time>
      </trkpt>
      <trkpt lat="48.78012" lon="2.12458">
        <ele>109.96</ele>
        <time>2019-04-14T12:48:55Z</time>
      </trkpt>
      <trkpt lat="48.7801" lon="2.1246">
        <ele>109.92</ele>
        <time>2019-04-14T12:49:22Z</time>
      </trkpt>
      <trkpt lat="48.7801" lon="2.12465">
        <ele>110.7</ele>
        <time>2019-04-14T12:49:43Z</time>
      </trkpt>
      <trkpt lat="48.7802" lon="2.12474">
        <ele>111.94</ele>
        <time>2019-04-14T12:50:00Z</time>
      </trkpt>
      <trkpt lat="48.78026" lon="2.12482">
        <ele>112.88</ele>
        <time>2019-04-14T12:50:21Z</time>
      </trkpt>
      <trkpt lat="48.78036" lon="2.12492">
        <ele>113.68</ele>
        <time>2019-04-14T12:50:43Z</time>
      </trkpt>
      <trkpt lat="48.78047" lon="2.1251">
        <ele>114.22</ele>
        <time>2019-04-14T12:51:02Z</time>
      </trkpt>
      <trkpt lat="48.78062" lon="2.12526">
        <ele>115.78</ele>
        <time>2019-04-14T12:51:21Z</time>
      </trkpt>
      <trkpt lat="48.78069" lon="2.12542">
        <ele>116.1</ele>
        <time>2019-04-14T12:51:35Z</time>
      </trkpt>
      <trkpt lat="48.78074" lon="2.12543">
        <ele>116.41</ele>
        <time>2019-04-14T12:52:06Z</time>
      </trkpt>
      <trkpt lat="48.78081" lon="2.12552">
        <ele>117.79</ele>
        <time>2019-04-14T12:52:23Z</time>
      </trkpt>
      <trkpt lat="48.78089" lon="2.12563">
        <ele>118.61</ele>
        <time>2019-04-14T12:52:43Z</time>
      </trkpt>
      <trkpt lat="48.78098" lon="2.12578">
        <ele>119.77</ele>
        <time>2019-04-14T12:52:59Z</time>
      </trkpt>
      <trkpt lat="48.78106" lon="2.12599">
        <ele>121.4</ele>
        <time>2019-04-14T12:53:18Z</time>
      </trkpt>
      <trkpt lat="48.78118" lon="2.12616">
        <ele>122.19</ele>
        <time>2019-04-14T12:53:37Z</time>
      </trkpt>
      <trkpt lat="48.78134" lon="2.12633">
        <ele>123.17</ele>
        <time>2019-04-14T12:53:53Z</time>
      </trkpt>
      <trkpt lat="48.78135" lon="2.12635">
        <ele>123.3</ele>
        <time>2019-04-14T12:53:56Z</time>
      </trkpt>
      <trkpt lat="48.78155" lon="2.12658">
        <ele>123.97</ele>
        <time>2019-04-14T12:54:16Z</time>
      </trkpt>
      <trkpt lat="48.7817" lon="2.12679">
        <ele>124.72</ele>
        <time>2019-04-14T12:54:31Z</time>
      </trkpt>
      <trkpt lat="48.78173" lon="2.12678">
        <ele>124.98</ele>
        <time>2019-04-14T12:54:36Z</time>
      </trkpt>
      <trkpt lat="48.78179" lon="2.12664">
        <ele>124.94</ele>
        <time>2019-04-14T12:54:55Z</time>
      </trkpt>
      <trkpt lat="48.78179" lon="2.12656">
        <ele>125.25</ele>
        <time>2019-04-14T12:55:18Z</time>
      </trkpt>
      <trkpt lat="48.78181" lon="2.12637">
        <ele>124.91</ele>
        <time>2019-04-14T12:55:36Z</time>
      </trkpt>
      <trkpt lat="48.78181" lon="2.12633">
        <ele>124.78</ele>
        <time>2019-04-14T12:55:42Z</time>
      </trkpt>
      <trkpt lat="48.7818" lon="2.12608">
        <ele>124.57</ele>
        <time>2019-04-14T12:56:06Z</time>
      </trkpt>
      <trkpt lat="48.78186" lon="2.12576">
        <ele>125</ele>
        <time>2019-04-14T12:56:24Z</time>
      </trkpt>
      <trkpt lat="48.78195" lon="2.1255">
        <ele>124.93</ele>
        <time>2019-04-14T12:56:44Z</time>
      </trkpt>
      <trkpt lat="48.78209" lon="2.12527">
        <ele>125.41</ele>
        <time>2019-04-14T12:57:03Z</time>
      </trkpt>
      <trkpt lat="48.78213" lon="2.12508">
        <ele>126.39</ele>
        <time>2019-04-14T12:57:24Z</time>
      </trkpt>
      <trkpt lat="48.78223" lon="2.1252">
        <ele>126.45</ele>
        <time>2019-04-14T12:57:45Z</time>
      </trkpt>
      <trkpt lat="48.78236" lon="2.12535">
        <ele>126.41</ele>
        <time>2019-04-14T12:58:03Z</time>
      </trkpt>
      <trkpt lat="48.7825" lon="2.1256">
        <ele>126.64</ele>
        <time>2019-04-14T12:58:24Z</time>
      </trkpt>
      <trkpt lat="48.78267" lon="2.12583">
        <ele>126.52</ele>
        <time>2019-04-14T12:58:44Z</time>
      </trkpt>
      <trkpt lat="48.78286" lon="2.12605">
        <ele>127.7</ele>
        <time>2019-04-14T12:59:06Z</time>
      </trkpt>
      <trkpt lat="48.78298" lon="2.12624">
        <ele>128.01</ele>
        <time>2019-04-14T12:59:26Z</time>
      </trkpt>
      <trkpt lat="48.7831" lon="2.12644">
        <ele>127.93</ele>
        <time>2019-04-14T12:59:47Z</time>
      </trkpt>
      <trkpt lat="48.78319" lon="2.12682">
        <ele>127.88</ele>
        <time>2019-04-14T12:59:56Z</time>
      </trkpt>
      <trkpt lat="48.78328" lon="2.127">
        <ele>127.45</ele>
        <time>2019-04-14T13:00:15Z</time>
      </trkpt>
      <trkpt lat="48.78342" lon="2.12716">
        <ele>127.56</ele>
        <time>2019-04-14T13:00:35Z</time>
      </trkpt>
      <trkpt lat="48.78353" lon="2.12743">
        <ele>127.15</ele>
        <time>2019-04-14T13:00:50Z</time>
      </trkpt>
      <trkpt lat="48.78356" lon="2.12744">
        <ele>127.56</ele>
        <time>2019-04-14T13:00:54Z</time>
      </trkpt>
      <trkpt lat="48.78365" lon="2.12758">
        <ele>127.81</ele>
        <time>2019-04-14T13:01:17Z</time>
      </trkpt>
      <trkpt lat="48.7838" lon="2.1277">
        <ele>126.91</ele>
        <time>2019-04-14T13:01:39Z</time>
      </trkpt>
      <trkpt lat="48.78412" lon="2.12784">
        <ele>126.91</ele>
        <time>2019-04-14T13:02:02Z</time>
      </trkpt>
      <trkpt lat="48.78437" lon="2.12796">
        <ele>126.89</ele>
        <time>2019-04-14T13:02:23Z</time>
      </trkpt>
      <trkpt lat="48.78462" lon="2.12805">
        <ele>126.05</ele>
        <time>2019-04-14T13:02:43Z</time>
      </trkpt>
      <trkpt lat="48.78477" lon="2.12819">
        <ele>126.1</ele>
        <time>2019-04-14T13:03:02Z</time>
      </trkpt>
      <trkpt lat="48.78513" lon="2.12836">
        <ele>125.06</ele>
        <time>2019-04-14T13:03:23Z</time>
      </trkpt>
      <trkpt lat="48.78519" lon="2.12838">
        <ele>124.76</ele>
        <time>2019-04-14T13:03:28Z</time>
      </trkpt>
      <trkpt lat="48.78537" lon="2.12844">
        <ele>122.58</ele>
        <time>2019-04-14T13:03:45Z</time>
      </trkpt>
      <trkpt lat="48.7854" lon="2.12844">
        <ele>123.39</ele>
        <time>2019-04-14T13:03:47Z</time>
      </trkpt>
      <trkpt lat="48.7856" lon="2.12848">
        <ele>120.56</ele>
        <time>2019-04-14T13:04:09Z</time>
      </trkpt>
      <trkpt lat="48.78573" lon="2.12856">
        <ele>117.4</ele>
        <time>2019-04-14T13:04:26Z</time>
      </trkpt>
      <trkpt lat="48.78593" lon="2.12865">
        <ele>115.95</ele>
        <time>2019-04-14T13:04:43Z</time>
      </trkpt>
      <trkpt lat="48.78608" lon="2.12873">
        <ele>112.91</ele>
        <time>2019-04-14T13:05:05Z</time>
      </trkpt>
      <trkpt lat="48.78628" lon="2.1288">
        <ele>109.86</ele>
        <time>2019-04-14T13:05:22Z</time>
      </trkpt>
      <trkpt lat="48.78644" lon="2.12889">
        <ele>106.62</ele>
        <time>2019-04-14T13:05:36Z</time>
      </trkpt>
      <trkpt lat="48.78669" lon="2.12897">
        <ele>105.77</ele>
        <time>2019-04-14T13:05:57Z</time>
      </trkpt>
      <trkpt lat="48.78687" lon="2.12911">
        <ele>105.87</ele>
        <time>2019-04-14T13:06:16Z</time>
      </trkpt>
      <trkpt lat="48.78706" lon="2.12922">
        <ele>106.16</ele>
        <time>2019-04-14T13:06:30Z</time>
      </trkpt>
      <trkpt lat="48.78721" lon="2.12936">
        <ele>107.6</ele>
        <time>2019-04-14T13:06:47Z</time>
      </trkpt>
      <trkpt lat="48.78733" lon="2.12953">
        <ele>108.01</ele>
        <time>2019-04-14T13:07:11Z</time>
      </trkpt>
      <trkpt lat="48.78747" lon="2.12954">
        <ele>107.3</ele>
        <time>2019-04-14T13:07:43Z</time>
      </trkpt>
      <trkpt lat="48.78744" lon="2.12952">
        <ele>108.06</ele>
        <time>2019-04-14T13:08:10Z</time>
      </trkpt>
      <trkpt lat="48.78744" lon="2.12951">
        <ele>107.82</ele>
        <time>2019-04-14T13:08:42Z</time>
      </trkpt>
      <trkpt lat="48.78746" lon="2.1295">
        <ele>108.23</ele>
        <time>2019-04-14T13:09:12Z</time>
      </trkpt>
      <trkpt lat="48.78745" lon="2.12945">
        <ele>108.04</ele>
        <time>2019-04-14T13:09:43Z</time>
      </trkpt>
      <trkpt lat="48.78745" lon="2.12956">
        <ele>108.33</ele>
        <time>2019-04-14T13:10:15Z</time>
      </trkpt>
      <trkpt lat="48.78746" lon="2.12956">
        <ele>108.4</ele>
        <time>2019-04-14T13:10:47Z</time>
      </trkpt>
      <trkpt lat="48.78744" lon="2.1296">
        <ele>108.37</ele>
        <time>2019-04-14T13:11:14Z</time>
      </trkpt>
      <trkpt lat="48.78743" lon="2.12962">
        <ele>108.32</ele>
        <time>2019-04-14T13:11:19Z</time>
      </trkpt>
      <trkpt lat="48.78743" lon="2.1297">
        <ele>109.47</ele>
        <time>2019-04-14T13:11:48Z</time>
      </trkpt>
      <trkpt lat="48.78752" lon="2.12981">
        <ele>109.52</ele>
        <time>2019-04-14T13:12:14Z</time>
      </trkpt>
      <trkpt lat="48.78756" lon="2.12997">
        <ele>110.93</ele>
        <time>2019-04-14T13:12:31Z</time>
      </trkpt>
      <trkpt lat="48.78758" lon="2.13021">
        <ele>112.33</ele>
        <time>2019-04-14T13:12:51Z</time>
      </trkpt>
      <trkpt lat="48.78765" lon="2.13051">
        <ele>112.47</ele>
        <time>2019-04-14T13:13:12Z</time>
      </trkpt>
      <trkpt lat="48.78766" lon="2.13081">
        <ele>113.06</ele>
        <time>2019-04-14T13:13:31Z</time>
      </trkpt>
      <trkpt lat="48.78764" lon="2.13119">
        <ele>114.39</ele>
        <time>2019-04-14T13:13:53Z</time>
      </trkpt>
      <trkpt lat="48.78768" lon="2.13155">
        <ele>112.97</ele>
        <time>2019-04-14T13:14:13Z</time>
      </trkpt>
      <trkpt lat="48.7877" lon="2.13193">
        <ele>111.78</ele>
        <time>2019-04-14T13:14:33Z</time>
      </trkpt>
      <trkpt lat="48.78776" lon="2.13219">
        <ele>111.09</ele>
        <time>2019-04-14T13:14:50Z</time>
      </trkpt>
      <trkpt lat="48.78776" lon="2.13227">
        <ele>111.39</ele>
        <time>2019-04-14T13:14:55Z</time>
      </trkpt>
      <trkpt lat="48.78778" lon="2.13238">
        <ele>111.35</ele>
        <time>2019-04-14T13:15:02Z</time>
      </trkpt>
      <trkpt lat="48.78781" lon="2.13245">
        <ele>111.29</ele>
        <time>2019-04-14T13:15:06Z</time>
      </trkpt>
      <trkpt lat="48.78784" lon="2.13265">
        <ele>111.02</ele>
        <time>2019-04-14T13:15:20Z</time>
      </trkpt>
      <trkpt lat="48.78778" lon="2.13276">
        <ele>110.72</ele>
        <time>2019-04-14T13:15:37Z</time>
      </trkpt>
      <trkpt lat="48.78773" lon="2.13285">
        <ele>109.42</ele>
        <time>2019-04-14T13:15:59Z</time>
      </trkpt>
      <trkpt lat="48.78772" lon="2.13286">
        <ele>109.8</ele>
        <time>2019-04-14T13:16:00Z</time>
      </trkpt>
      <trkpt lat="48.78769" lon="2.13293">
        <ele>109.36</ele>
        <time>2019-04-14T13:16:05Z</time>
      </trkpt>
      <trkpt lat="48.78769" lon="2.13296">
        <ele>109.57</ele>
        <time>2019-04-14T13:16:07Z</time>
      </trkpt>
      <trkpt lat="48.78766" lon="2.13305">
        <ele>109.29</ele>
        <time>2019-04-14T13:16:25Z</time>
      </trkpt>
      <trkpt lat="48.78767" lon="2.13306">
        <ele>110.36</ele>
        <time>2019-04-14T13:16:42Z</time>
      </trkpt>
      <trkpt lat="48.78779" lon="2.13314">
        <ele>110.41</ele>
        <time>2019-04-14T13:16:54Z</time>
      </trkpt>
      <trkpt lat="48.78796" lon="2.13324">
        <ele>111.7</ele>
        <time>2019-04-14T13:17:13Z</time>
      </trkpt>
      <trkpt lat="48.78809" lon="2.13329">
        <ele>112.7</ele>
        <time>2019-04-14T13:17:27Z</time>
      </trkpt>
      <trkpt lat="48.78824" lon="2.13341">
        <ele>113.62</ele>
        <time>2019-04-14T13:17:49Z</time>
      </trkpt>
      <trkpt lat="48.7884" lon="2.13356">
        <ele>114.84</ele>
        <time>2019-04-14T13:18:08Z</time>
      </trkpt>
      <trkpt lat="48.78846" lon="2.13361">
        <ele>115.01</ele>
        <time>2019-04-14T13:18:24Z</time>
      </trkpt>
      <trkpt lat="48.78856" lon="2.13389">
        <ele>116.59</ele>
        <time>2019-04-14T13:18:38Z</time>
      </trkpt>
      <trkpt lat="48.78883" lon="2.13367">
        <ele>118.39</ele>
        <time>2019-04-14T13:18:58Z</time>
      </trkpt>
      <trkpt lat="48.78901" lon="2.13349">
        <ele>119.96</ele>
        <time>2019-04-14T13:19:17Z</time>
      </trkpt>
      <trkpt lat="48.78925" lon="2.13335">
        <ele>122.58</ele>
        <time>2019-04-14T13:19:35Z</time>
      </trkpt>
      <trkpt lat="48.78939" lon="2.13335">
        <ele>125.47</ele>
        <time>2019-04-14T13:19:55Z</time>
      </trkpt>
      <trkpt lat="48.78952" lon="2.13332">
        <ele>128.67</ele>
        <time>2019-04-14T13:20:10Z</time>
      </trkpt>
      <trkpt lat="48.7897" lon="2.13331">
        <ele>131.39</ele>
        <time>2019-04-14T13:20:30Z</time>
      </trkpt>
      <trkpt lat="48.78991" lon="2.13331">
        <ele>131.81</ele>
        <time>2019-04-14T13:20:52Z</time>
      </trkpt>
      <trkpt lat="48.78996" lon="2.13332">
        <ele>132.36</ele>
        <time>2019-04-14T13:20:58Z</time>
      </trkpt>
      <trkpt lat="48.79013" lon="2.13336">
        <ele>132.79</ele>
        <time>2019-04-14T13:21:16Z</time>
      </trkpt>
      <trkpt lat="48.79035" lon="2.13339">
        <ele>132.55</ele>
        <time>2019-04-14T13:21:35Z</time>
      </trkpt>
      <trkpt lat="48.79058" lon="2.13338">
        <ele>132.44</ele>
        <time>2019-04-14T13:21:53Z</time>
      </trkpt>
      <trkpt lat="48.79079" lon="2.13335">
        <ele>132.84</ele>
        <time>2019-04-14T13:22:11Z</time>
      </trkpt>
      <trkpt lat="48.79099" lon="2.13332">
        <ele>132.59</ele>
        <time>2019-04-14T13:22:30Z</time>
      </trkpt>
      <trkpt lat="48.79121" lon="2.13334">
        <ele>132.71</ele>
        <time>2019-04-14T13:22:50Z</time>
      </trkpt>
      <trkpt lat="48.79144" lon="2.13334">
        <ele>134.28</ele>
        <time>2019-04-14T13:23:10Z</time>
      </trkpt>
      <trkpt lat="48.7916" lon="2.13333">
        <ele>134.23</ele>
        <time>2019-04-14T13:23:29Z</time>
      </trkpt>
      <trkpt lat="48.79182" lon="2.13332">
        <ele>134.68</ele>
        <time>2019-04-14T13:23:50Z</time>
      </trkpt>
      <trkpt lat="48.79208" lon="2.13337">
        <ele>135.07</ele>
        <time>2019-04-14T13:24:12Z</time>
      </trkpt>
      <trkpt lat="48.79224" lon="2.13337">
        <ele>134.8</ele>
        <time>2019-04-14T13:24:28Z</time>
      </trkpt>
      <trkpt lat="48.7924" lon="2.13329">
        <ele>135.1</ele>
        <time>2019-04-14T13:24:46Z</time>
      </trkpt>
      <trkpt lat="48.79244" lon="2.13309">
        <ele>135.61</ele>
        <time>2019-04-14T13:25:06Z</time>
      </trkpt>
      <trkpt lat="48.79241" lon="2.13286">
        <ele>135.79</ele>
        <time>2019-04-14T13:25:26Z</time>
      </trkpt>
      <trkpt lat="48.79241" lon="2.13283">
        <ele>135.47</ele>
        <time>2019-04-14T13:25:28Z</time>
      </trkpt>
      <trkpt lat="48.79243" lon="2.13258">
        <ele>135.52</ele>
        <time>2019-04-14T13:25:43Z</time>
      </trkpt>
      <trkpt lat="48.79251" lon="2.13228">
        <ele>135</ele>
        <time>2019-04-14T13:26:04Z</time>
      </trkpt>
      <trkpt lat="48.79255" lon="2.13192">
        <ele>133.85</ele>
        <time>2019-04-14T13:26:24Z</time>
      </trkpt>
      <trkpt lat="48.79251" lon="2.13164">
        <ele>132.74</ele>
        <time>2019-04-14T13:26:44Z</time>
      </trkpt>
      <trkpt lat="48.79237" lon="2.13144">
        <ele>134.06</ele>
        <time>2019-04-14T13:27:04Z</time>
      </trkpt>
      <trkpt lat="48.79221" lon="2.13129">
        <ele>133.48</ele>
        <time>2019-04-14T13:27:24Z</time>
      </trkpt>
      <trkpt lat="48.792" lon="2.13108">
        <ele>133.13</ele>
        <time>2019-04-14T13:27:42Z</time>
      </trkpt>
      <trkpt lat="48.79197" lon="2.13108">
        <ele>132.47</ele>
        <time>2019-04-14T13:27:45Z</time>
      </trkpt>
      <trkpt lat="48.79182" lon="2.13089">
        <ele>133.29</ele>
        <time>2019-04-14T13:28:01Z</time>
      </trkpt>
      <trkpt lat="48.7917" lon="2.13066">
        <ele>133.21</ele>
        <time>2019-04-14T13:28:21Z</time>
      </trkpt>
      <trkpt lat="48.7917" lon="2.13066">
        <ele>133.2</ele>
        <time>2019-04-14T13:28:22Z</time>
      </trkpt>
      <trkpt lat="48.79171" lon="2.13045">
        <ele>131.3</ele>
        <time>2019-04-14T13:28:45Z</time>
      </trkpt>
      <trkpt lat="48.79173" lon="2.13037">
        <ele>127.71</ele>
        <time>2019-04-14T13:28:58Z</time>
      </trkpt>
      <trkpt lat="48.79174" lon="2.13036">
        <ele>127.43</ele>
        <time>2019-04-14T13:28:59Z</time>
      </trkpt>
      <trkpt lat="48.79183" lon="2.13027">
        <ele>124.42</ele>
        <time>2019-04-14T13:29:15Z</time>
      </trkpt>
      <trkpt lat="48.79186" lon="2.13023">
        <ele>123.3</ele>
        <time>2019-04-14T13:29:27Z</time>
      </trkpt>
      <trkpt lat="48.79194" lon="2.13015">
        <ele>120.57</ele>
        <time>2019-04-14T13:29:40Z</time>
      </trkpt>
      <trkpt lat="48.79203" lon="2.13004">
        <ele>117.53</ele>
        <time>2019-04-14T13:29:51Z</time>
      </trkpt>
      <trkpt lat="48.79217" lon="2.12985">
        <ele>114.93</ele>
        <time>2019-04-14T13:30:11Z</time>
      </trkpt>
      <trkpt lat="48.79218" lon="2.12983">
        <ele>114.45</ele>
        <time>2019-04-14T13:30:12Z</time>
      </trkpt>
      <trkpt lat="48.79224" lon="2.12955">
        <ele>111.07</ele>
        <time>2019-04-14T13:30:29Z</time>
      </trkpt>
      <trkpt lat="48.79232" lon="2.12929">
        <ele>108.67</ele>
        <time>2019-04-14T13:30:45Z</time>
      </trkpt>
      <trkpt lat="48.79242" lon="2.12908">
        <ele>105.92</ele>
        <time>2019-04-14T13:31:00Z</time>
      </trkpt>
      <trkpt lat="48.79243" lon="2.12906">
        <ele>106.11</ele>
        <time>2019-04-14T13:31:01Z</time>
      </trkpt>
      <trkpt lat="48.79246" lon="2.12876">
        <ele>106.3</ele>
        <time>2019-04-14T13:31:18Z</time>
      </trkpt>
      <trkpt lat="48.79252" lon="2.12868">
        <ele>105.39</ele>
        <time>2019-04-14T13:31:27Z</time>
      </trkpt>
      <trkpt lat="48.79273" lon="2.12866">
        <ele>104.61</ele>
        <time>2019-04-14T13:31:44Z</time>
      </trkpt>
      <trkpt lat="48.79285" lon="2.1287">
        <ele>104.17</ele>
        <time>2019-04-14T13:31:58Z</time>
      </trkpt>
      <trkpt lat="48.79294" lon="2.12884">
        <ele>103.35</ele>
        <time>2019-04-14T13:32:13Z</time>
      </trkpt>
      <trkpt lat="48.79306" lon="2.12894">
        <ele>103.36</ele>
        <time>2019-04-14T13:32:29Z</time>
      </trkpt>
      <trkpt lat="48.79319" lon="2.129">
        <ele>102.01</ele>
        <time>2019-04-14T13:32:43Z</time>
      </trkpt>
      <trkpt lat="48.79326" lon="2.12907">
        <ele>101.24</ele>
        <time>2019-04-14T13:33:00Z</time>
      </trkpt>
      <trkpt lat="48.79335" lon="2.12913">
        <ele>100.55</ele>
        <time>2019-04-14T13:33:23Z</time>
      </trkpt>
      <trkpt lat="48.79364" lon="2.12934">
        <ele>100.31</ele>
        <time>2019-04-14T13:33:43Z</time>
      </trkpt>
      <trkpt lat="48.79366" lon="2.12935">
        <ele>99.84</ele>
        <time>2019-04-14T13:33:46Z</time>
      </trkpt>
      <trkpt lat="48.79393" lon="2.12957">
        <ele>100.23</ele>
        <time>2019-04-14T13:34:05Z</time>
      </trkpt>
      <trkpt lat="48.79411" lon="2.12964">
        <ele>99.43</ele>
        <time>2019-04-14T13:34:26Z</time>
      </trkpt>
      <trkpt lat="48.79413" lon="2.12967">
        <ele>99.76</ele>
        <time>2019-04-14T13:34:47Z</time>
      </trkpt>
      <trkpt lat="48.79422" lon="2.12981">
        <ele>99.99</ele>
        <time>2019-04-14T13:35:03Z</time>
      </trkpt>
      <trkpt lat="48.79476" lon="2.13005">
        <ele>100.58</ele>
        <time>2019-04-14T13:35:24Z</time>
      </trkpt>
      <trkpt lat="48.79479" lon="2.13011">
        <ele>101.5</ele>
        <time>2019-04-14T13:35:50Z</time>
      </trkpt>
      <trkpt lat="48.79478" lon="2.13014">
        <ele>100.91</ele>
        <time>2019-04-14T13:36:17Z</time>
      </trkpt>
      <trkpt lat="48.79484" lon="2.13015">
        <ele>102.22</ele>
        <time>2019-04-14T13:36:48Z</time>
      </trkpt>
      <trkpt lat="48.79476" lon="2.1302">
        <ele>103.42</ele>
        <time>2019-04-14T13:37:11Z</time>
      </trkpt>
      <trkpt lat="48.79465" lon="2.13035">
        <ele>105.05</ele>
        <time>2019-04-14T13:37:25Z</time>
      </trkpt>
      <trkpt lat="48.79459" lon="2.13042">
        <ele>106.17</ele>
        <time>2019-04-14T13:37:30Z</time>
      </trkpt>
      <trkpt lat="48.79448" lon="2.13054">
        <ele>106.61</ele>
        <time>2019-04-14T13:37:40Z</time>
      </trkpt>
      <trkpt lat="48.79447" lon="2.13057">
        <ele>107.06</ele>
        <time>2019-04-14T13:37:44Z</time>
      </trkpt>
      <trkpt lat="48.79445" lon="2.13061">
        <ele>107.46</ele>
        <time>2019-04-14T13:37:47Z</time>
      </trkpt>
      <trkpt lat="48.79445" lon="2.13064">
        <ele>107.34</ele>
        <time>2019-04-14T13:37:49Z</time>
      </trkpt>
      <trkpt lat="48.79446" lon="2.13067">
        <ele>107.79</ele>
        <time>2019-04-14T13:37:52Z</time>
      </trkpt>
      <trkpt lat="48.79456" lon="2.13064">
        <ele>107.84</ele>
        <time>2019-04-14T13:38:12Z</time>
      </trkpt>
      <trkpt lat="48.79457" lon="2.13071">
        <ele>109.31</ele>
        <time>2019-04-14T13:38:20Z</time>
      </trkpt>
      <trkpt lat="48.79459" lon="2.13077">
        <ele>109.47</ele>
        <time>2019-04-14T13:38:24Z</time>
      </trkpt>
      <trkpt lat="48.79464" lon="2.13088">
        <ele>109.35</ele>
        <time>2019-04-14T13:38:42Z</time>
      </trkpt>
      <trkpt lat="48.79475" lon="2.13113">
        <ele>108.44</ele>
        <time>2019-04-14T13:39:03Z</time>
      </trkpt>
      <trkpt lat="48.79483" lon="2.13136">
        <ele>108.42</ele>
        <time>2019-04-14T13:39:21Z</time>
      </trkpt>
      <trkpt lat="48.79491" lon="2.13158">
        <ele>107.65</ele>
        <time>2019-04-14T13:39:36Z</time>
      </trkpt>
      <trkpt lat="48.79502" lon="2.1318">
        <ele>107.47</ele>
        <time>2019-04-14T13:39:53Z</time>
      </trkpt>
      <trkpt lat="48.79516" lon="2.13202">
        <ele>108.56</ele>
        <time>2019-04-14T13:40:10Z</time>
      </trkpt>
      <trkpt lat="48.79528" lon="2.13223">
        <ele>107.41</ele>
        <time>2019-04-14T13:40:27Z</time>
      </trkpt>
      <trkpt lat="48.79533" lon="2.13232">
        <ele>107.18</ele>
        <time>2019-04-14T13:40:34Z</time>
      </trkpt>
      <trkpt lat="48.79536" lon="2.13237">
        <ele>107.58</ele>
        <time>2019-04-14T13:40:39Z</time>
      </trkpt>
      <trkpt lat="48.7955" lon="2.13258">
        <ele>107.51</ele>
        <time>2019-04-14T13:40:57Z</time>
      </trkpt>
      <trkpt lat="48.79562" lon="2.13278">
        <ele>106.39</ele>
        <time>2019-04-14T13:41:12Z</time>
      </trkpt>
      <trkpt lat="48.7957" lon="2.1329">
        <ele>106.94</ele>
        <time>2019-04-14T13:41:29Z</time>
      </trkpt>
      <trkpt lat="48.79571" lon="2.13291">
        <ele>106.67</ele>
        <time>2019-04-14T13:41:31Z</time>
      </trkpt>
      <trkpt lat="48.79583" lon="2.13311">
        <ele>106.4</ele>
        <time>2019-04-14T13:41:47Z</time>
      </trkpt>
      <trkpt lat="48.79592" lon="2.13325">
        <ele>106.35</ele>
        <time>2019-04-14T13:42:00Z</time>
      </trkpt>
      <trkpt lat="48.79598" lon="2.13337">
        <ele>106.74</ele>
        <time>2019-04-14T13:42:10Z</time>
      </trkpt>
      <trkpt lat="48.79607" lon="2.13357">
        <ele>106.56</ele>
        <time>2019-04-14T13:42:26Z</time>
      </trkpt>
      <trkpt lat="48.79609" lon="2.13361">
        <ele>106.4</ele>
        <time>2019-04-14T13:42:50Z</time>
      </trkpt>
      <trkpt lat="48.79612" lon="2.13374">
        <ele>105.6</ele>
        <time>2019-04-14T13:43:14Z</time>
      </trkpt>
      <trkpt lat="48.79617" lon="2.13381">
        <ele>105.5</ele>
        <time>2019-04-14T13:43:21Z</time>
      </trkpt>
      <trkpt lat="48.79622" lon="2.13399">
        <ele>105.22</ele>
        <time>2019-04-14T13:43:36Z</time>
      </trkpt>
      <trkpt lat="48.79629" lon="2.13411">
        <ele>104.63</ele>
        <time>2019-04-14T13:43:53Z</time>
      </trkpt>
      <trkpt lat="48.79633" lon="2.13416">
        <ele>104.03</ele>
        <time>2019-04-14T13:43:58Z</time>
      </trkpt>
      <trkpt lat="48.79654" lon="2.13431">
        <ele>103</ele>
        <time>2019-04-14T13:44:18Z</time>
      </trkpt>
      <trkpt lat="48.79664" lon="2.13442">
        <ele>103.09</ele>
        <time>2019-04-14T13:44:30Z</time>
      </trkpt>
      <trkpt lat="48.79667" lon="2.13451">
        <ele>102.75</ele>
        <time>2019-04-14T13:44:37Z</time>
      </trkpt>
      <trkpt lat="48.7967" lon="2.13458">
        <ele>102.01</ele>
        <time>2019-04-14T13:44:42Z</time>
      </trkpt>
      <trkpt lat="48.79678" lon="2.13472">
        <ele>101.75</ele>
        <time>2019-04-14T13:44:55Z</time>
      </trkpt>
      <trkpt lat="48.79689" lon="2.13488">
        <ele>103.12</ele>
        <time>2019-04-14T13:45:09Z</time>
      </trkpt>
      <trkpt lat="48.79694" lon="2.135">
        <ele>102.5</ele>
        <time>2019-04-14T13:45:20Z</time>
      </trkpt>
      <trkpt lat="48.79698" lon="2.13504">
        <ele>103.24</ele>
        <time>2019-04-14T13:45:28Z</time>
      </trkpt>
      <trkpt lat="48.7971" lon="2.13524">
        <ele>103.45</ele>
        <time>2019-04-14T13:45:48Z</time>
      </trkpt>
      <trkpt lat="48.79721" lon="2.13541">
        <ele>103.28</ele>
        <time>2019-04-14T13:46:06Z</time>
      </trkpt>
      <trkpt lat="48.79721" lon="2.13545">
        <ele>103.34</ele>
        <time>2019-04-14T13:46:09Z</time>
      </trkpt>
      <trkpt lat="48.79713" lon="2.13582">
        <ele>102.67</ele>
        <time>2019-04-14T13:46:27Z</time>
      </trkpt>
      <trkpt lat="48.79698" lon="2.13582">
        <ele>101.9</ele>
        <time>2019-04-14T13:46:44Z</time>
      </trkpt>
      <trkpt lat="48.79669" lon="2.13555">
        <ele>100.43</ele>
        <time>2019-04-14T13:47:04Z</time>
      </trkpt>
      <trkpt lat="48.7965" lon="2.13557">
        <ele>101.3</ele>
        <time>2019-04-14T13:47:22Z</time>
      </trkpt>
      <trkpt lat="48.7964" lon="2.13564">
        <ele>102.91</ele>
        <time>2019-04-14T13:47:32Z</time>
      </trkpt>
      <trkpt lat="48.7963" lon="2.1357">
        <ele>103.68</ele>
        <time>2019-04-14T13:47:42Z</time>
      </trkpt>
      <trkpt lat="48.7962" lon="2.13578">
        <ele>104.3</ele>
        <time>2019-04-14T13:47:51Z</time>
      </trkpt>
      <trkpt lat="48.79599" lon="2.13577">
        <ele>103.34</ele>
        <time>2019-04-14T13:48:11Z</time>
      </trkpt>
      <trkpt lat="48.7959" lon="2.13588">
        <ele>104.34</ele>
        <time>2019-04-14T13:48:24Z</time>
      </trkpt>
      <trkpt lat="48.79583" lon="2.13597">
        <ele>105.82</ele>
        <time>2019-04-14T13:48:40Z</time>
      </trkpt>
      <trkpt lat="48.79581" lon="2.13598">
        <ele>105.34</ele>
        <time>2019-04-14T13:48:46Z</time>
      </trkpt>
      <trkpt lat="48.7958" lon="2.13607">
        <ele>105.46</ele>
        <time>2019-04-14T13:49:08Z</time>
      </trkpt>
      <trkpt lat="48.7957" lon="2.1361">
        <ele>105.34</ele>
        <time>2019-04-14T13:49:43Z</time>
      </trkpt>
      <trkpt lat="48.79567" lon="2.13609">
        <ele>105.52</ele>
        <time>2019-04-14T13:49:46Z</time>
      </trkpt>
      <trkpt lat="48.7956" lon="2.13604">
        <ele>105.18</ele>
        <time>2019-04-14T13:50:00Z</time>
      </trkpt>
      <trkpt lat="48.79559" lon="2.13601">
        <ele>104.4</ele>
        <time>2019-04-14T13:50:02Z</time>
      </trkpt>
      <trkpt lat="48.79552" lon="2.13607">
        <ele>101.18</ele>
        <time>2019-04-14T13:50:22Z</time>
      </trkpt>
      <trkpt lat="48.79552" lon="2.13607">
        <ele>100.97</ele>
        <time>2019-04-14T13:50:23Z</time>
      </trkpt>
      <trkpt lat="48.79552" lon="2.13607">
        <ele>100.55</ele>
        <time>2019-04-14T13:50:25Z</time>
      </trkpt>
      <trkpt lat="48.79545" lon="2.1361">
        <ele>99.69</ele>
        <time>2019-04-14T13:50:34Z</time>
      </trkpt>
      <trkpt lat="48.79543" lon="2.13599">
        <ele>99.94</ele>
        <time>2019-04-14T13:51:17Z</time>
      </trkpt>
      <trkpt lat="48.79542" lon="2.13592">
        <ele>101</ele>
        <time>2019-04-14T13:53:32Z</time>
      </trkpt>
    </trkseg>
  </trk>
</gpx>